Return to Metar
METAR CYNL 181300Z AUTO 08005KT FEW180 03/03 A2970 RMK AO1 PRESFR SLP073
METAR CYNL 181200Z AUTO 00000KT CLR 02/02 A2973 RMK AO1 SLP083
METAR CYNL 181100Z AUTO 00000KT FEW190 02/02 A2971 RMK AO1 PRESFR SLP078
METAR CYNL 181000Z AUTO 00000KT CLR 02/02 A2973 RMK AO1 PRESFR SLP085
METAR CYNL 180900Z AUTO 00000KT FEW060 04/04 A2976 RMK AO1 SLP091
METAR CYNL 180800Z AUTO 15002KT FEW060 04/04 A2977 RMK AO1 SLP095
METAR CYNL 180700Z AUTO 00000KT CLR 05/05 A2978 RMK AO1 SLP096
METAR CYNL 180600Z AUTO 00000KT CLR 05/05 A2979 RMK AO1 SLP101
METAR CYNL 180500Z AUTO 18003KT CLR 05/05 A2979 RMK AO1 SLP104
METAR CYNL 180400Z AUTO 19003KT CLR 06/06 A2980 RMK AO1 SLP106
METAR CYNL 180300Z AUTO 18004KT CLR 06/06 A2981 RMK AO1 SLP109
METAR CYNL 180200Z AUTO 19005KT FEW040 06/05 A2982 RMK AO1 SLP113
SPECI CYNL 180129Z AUTO 20004KT FEW014 SCT026 BKN037 07/05 A2983 RMK AO1 SLP116
SPECI CYNL 180117Z AUTO 00000KT FEW015 BKN026 07/06 A2983 RMK AO1 SLP117
SPECI CYNL 180116Z AUTO 27002KT FEW015 SCT026 BKN049 07/06 A2983 RMK AO1 SLP117
SPECI CYNL 180115Z AUTO 26003KT FEW016 BKN026 07/06 A2983 RMK AO1 SLP117
METAR CYNL 180100Z AUTO 20004KT FEW025 SCT035 07/06 A2983 RMK AO1 SLP117
SPECI CYNL 180027Z AUTO 15004KT FEW006 SCT010 BKN033 07/07 A2983 RMK AO1 SLP118
SPECI CYNL 180024Z AUTO 15004KT FEW006 SCT011 BKN022 07/07 A2983 RMK AO1 SLP118
SPECI CYNL 180021Z AUTO 15004KT FEW006 BKN011 BKN022 07/07 A2983 RMK AO1 SLP118
SPECI CYNL 180018Z AUTO 16004KT VV016 07/07 A2983 RMK AO1 SLP118
SPECI CYNL 180016Z AUTO 16004KT VV011 07/07 A2983 RMK AO1 SLP119
SPECI CYNL 180014Z AUTO 16004KT VV008 07/06 A2983 RMK AO1 SLP119
SPECI CYNL 180005Z AUTO 16006KT FEW007 BKN010 BKN018 07/06 A2983 RMK AO1 SLP119
METAR CYNL 180000Z AUTO 17006KT SCT010 BKN014 07/06 A2983 RMK AO1 SLP119
SPECI CYNL 172355Z AUTO 15004KT FEW011 BKN013 07/05 A2983 RMK AO1 SLP118
SPECI CYNL 172350Z AUTO 15006KT SCT013 BKN024 07/05 A2983 RMK AO1 SLP118
SPECI CYNL 172314Z AUTO 17004KT FEW013 SCT023 BKN030 07/06 A2984 RMK AO1 SLP119
SPECI CYNL 172313Z AUTO 17004KT FEW013 BKN025 07/06 A2984 RMK AO1 SLP119
SPECI CYNL 172309Z AUTO 16004KT FEW012 BKN024 07/06 A2984 RMK AO1 SLP119
SPECI CYNL 172308Z AUTO 17004KT FEW012 SCT023 BKN028 07/06 A2984 RMK AO1 SLP119
SPECI CYNL 172306Z AUTO 17004KT FEW011 BKN022 07/06 A2984 RMK AO1 SLP119
SPECI CYNL 172304Z AUTO 16005KT FEW011 SCT023 BKN027 07/06 A2984 RMK AO1 SLP119
METAR CYNL 172300Z AUTO 16005KT FEW011 BKN023 07/06 A2984 RMK AO1 SLP120
SPECI CYNL 172223Z AUTO 17005KT FEW017 BKN024 07/04 A2984 RMK AO1 SLP121
METAR CYNL 172200Z AUTO 17006KT BKN025 BKN031 08/03 A2984 RMK AO1 SLP120
SPECI CYNL 172152Z AUTO 18008KT BKN024 OVC032 08/03 A2984 RMK AO1 SLP119
SPECI CYNL 172148Z AUTO 18007KT BKN025 OVC032 08/03 A2984 RMK AO1 SLP119
SPECI CYNL 172146Z AUTO 17005KT SCT025 OVC032 08/02 A2984 RMK AO1 SLP119
SPECI CYNL 172144Z AUTO 15004KT OVC029 08/02 A2984 RMK AO1 SLP119
SPECI CYNL 172114Z AUTO 17004KT FEW021 OVC030 08/02 A2985 RMK AO1 SLP121
SPECI CYNL 172101Z AUTO 18007KT FEW019 BKN025 08/03 A2985 RMK AO1 SLP122
METAR CYNL 172100Z AUTO 18008KT FEW019 SCT025 BKN034 08/03 A2985 RMK AO1 SLP122
METAR CYNL 172000Z AUTO 23003KT FEW021 BKN050 08/03 A2985 RMK AO1 SLP123
METAR CYNL 171900Z AUTO 18004KT FEW021 08/02 A2985 RMK AO1 SLP123
METAR CYNL 171800Z AUTO 20003KT 170V240 FEW017 08/03 A2985 RMK AO1 SLP122
SPECI CYNL 171744Z AUTO 25003KT SCT016 BKN200 07/03 A2985 RMK AO1 SLP123
SPECI CYNL 171711Z AUTO 18004KT BKN015 06/03 A2985 RMK AO1 SLP124
SPECI CYNL 171708Z AUTO 18004KT BKN014 06/02 A2985 RMK AO1 SLP124
SPECI CYNL 171707Z AUTO 17004KT SCT014 BKN017 06/02 A2985 RMK AO1 SLP124
METAR CYNL 171700Z AUTO 20002KT BKN014 OVC017 06/02 A2985 RMK AO1 SLP124
SPECI CYNL 171624Z AUTO 23003KT 200V270 BKN012 06/03 A2985 RMK AO1 SLP123
SPECI CYNL 171621Z AUTO 27002KT SCT012 BKN190 06/03 A2985 RMK AO1 SLP122
METAR CYNL 171600Z AUTO 27003KT OVC012 05/02 A2985 RMK AO1 SLP122
METAR CYNL 171500Z AUTO 03003KT OVC010 05/03 A2984 RMK AO1 SLP121
SPECI CYNL 171446Z AUTO 02003KT OVC010 05/02 A2984 RMK AO1 SLP119
SPECI CYNL 171436Z AUTO 01003KT OVC009 05/03 A2984 RMK AO1 SLP120
SPECI CYNL 171431Z AUTO 32003KT OVC010 05/03 A2984 RMK AO1 SLP120
SPECI CYNL 171402Z AUTO 34003KT BKN009 OVC012 04/03 A2983 RMK AO1 SLP118
METAR CYNL 171400Z AUTO 33003KT BKN010 OVC012 04/03 A2983 RMK AO1 SLP117
SPECI CYNL 171348Z AUTO 00002KT BKN010 04/03 A2983 RMK AO1 SLP116
METAR CYNL 171300Z AUTO 00003KT FEW007 BKN009 BKN140 03/03 A2982 RMK AO1 SLP113
SPECI CYNL 171252Z AUTO 33002KT FEW005 BKN009 04/03 A2982 RMK AO1 SLP112
SPECI CYNL 171251Z AUTO 33002KT FEW005 SCT007 BKN011 04/03 A2982 RMK AO1 SLP112
SPECI CYNL 171247Z AUTO 00000KT SCT005 BKN140 04/03 A2982 RMK AO1 SLP112
SPECI CYNL 171245Z AUTO 34002KT SCT005 BKN011 04/03 A2982 RMK AO1 SLP112
METAR CYNL 171200Z AUTO 01002KT VV006 04/04 A2980 RMK AO1 SLP108
SPECI CYNL 171112Z AUTO 00004KT BKN009 BKN011 04/03 A2979 RMK AO1 SLP104
SPECI CYNL 171101Z AUTO 00004KT BKN011 04/03 A2979 RMK AO1 SLP102
METAR CYNL 171100Z AUTO 00003KT SCT011 BKN080 04/03 A2979 RMK AO1 SLP102
METAR CYNL 171000Z AUTO 34006KT SCT009 BKN082 04/03 A2977 RMK AO1 SLP095
SPECI CYNL 170945Z AUTO 35003KT SCT009 BKN084 04/04 A2976 RMK AO1 SLP091
SPECI CYNL 170942Z AUTO 35004KT BKN009 04/04 A2976 RMK AO1 SLP091
SPECI CYNL 170929Z AUTO 34006KT SCT009 BKN088 04/03 A2976 RMK AO1 SLP090
SPECI CYNL 170928Z AUTO 34006KT SCT009 BKN012 04/03 A2976 RMK AO1 SLP090
SPECI CYNL 170915Z AUTO 34004KT BKN009 04/04 A2975 RMK AO1 SLP089
SPECI CYNL 170914Z AUTO 34004KT SCT009 BKN010 04/04 A2975 RMK AO1 SLP088
SPECI CYNL 170907Z AUTO 33005KT SCT009 BKN094 04/04 A2975 RMK AO1 SLP087
SPECI CYNL 170906Z AUTO 34005KT SCT009 BKN010 04/04 A2975 RMK AO1 SLP087
METAR CYNL 170900Z AUTO 34005KT BKN009 05/04 A2975 RMK AO1 SLP087
SPECI CYNL 170813Z AUTO 34005KT BKN009 OVC011 05/04 A2973 RMK AO1 PRESRR SLP082
METAR CYNL 170800Z AUTO 00006KT BKN010 OVC012 05/04 A2973 RMK AO1 PRESRR SLP081
SPECI CYNL 170724Z AUTO 35006KT FEW008 OVC011 05/04 A2972 RMK AO1 SLP076
METAR CYNL 170700Z AUTO 00007KT OVC010 05/04 A2971 RMK AO1 SLP073
SPECI CYNL 170633Z AUTO 34004KT FEW009 BKN011 OVC072 05/05 A2971 RMK AO1 SLP071
SPECI CYNL 170630Z AUTO 34005KT FEW008 SCT012 BKN015 05/05 A2971 RMK AO1 SLP071
SPECI CYNL 170618Z AUTO 35007KT FEW005 SCT009 BKN011 05/05 A2970 RMK AO1 SLP069
METAR CYNL 170600Z AUTO 00005KT OVC006 05/05 A2970 RMK AO1 SLP067
SPECI CYNL 170535Z AUTO 00006KT SCT006 BKN008 BKN011 05/05 A2969 RMK AO1 PRESRR SLP065
SPECI CYNL 170521Z AUTO 35008KT SCT006 BKN010 OVC013 06/05 A2968 RMK AO1 PRESRR SLP063
SPECI CYNL 170519Z AUTO 35007KT VV010 06/05 A2968 RMK AO1 PRESRR SLP063
SPECI CYNL 170510Z AUTO 00008G15KT SCT006 BKN008 BKN010 06/06 A2968 RMK AO1 PRESRR SLP062
SPECI CYNL 170509Z AUTO 00010KT SCT006 BKN010 OVC013 06/06 A2968 RMK AO1 PRESRR SLP062
SPECI CYNL 170507Z AUTO 35011KT SCT006 BKN008 OVC013 06/06 A2968 RMK AO1 PRESRR SLP062
SPECI CYNL 170504Z AUTO 35008KT VV010 06/06 A2968 RMK AO1 PRESRR SLP062
METAR CYNL 170500Z AUTO 35010KT SCT006 BKN009 BKN011 06/06 A2968 RMK AO1 PRESRR SLP061
SPECI CYNL 170451Z AUTO 35009KT SCT006 BKN008 OVC012 06/06 A2967 RMK AO1 PRESRR SLP060
SPECI CYNL 170450Z AUTO 35009KT VV010 06/06 A2967 RMK AO1 PRESRR SLP060
SPECI CYNL 170408Z AUTO 35006KT FEW007 BKN009 BKN012 06/06 A2965 RMK AO1 PRESRR SLP054
SPECI CYNL 170407Z AUTO 00007KT SCT008 BKN011 OVC014 06/06 A2965 RMK AO1 PRESRR SLP054
METAR CYNL 170400Z AUTO 35007KT BKN009 OVC011 06/05 A2965 RMK AO1 PRESRR SLP053
SPECI CYNL 170345Z AUTO 35008G15KT BKN009 OVC014 06/05 A2965 RMK AO1 PRESRR SLP053
SPECI CYNL 170344Z AUTO 35009G15KT SCT009 BKN011 OVC014 06/05 A2965 RMK AO1 PRESRR SLP053
SPECI CYNL 170343Z AUTO 35009G15KT BKN009 OVC014 06/05 A2965 RMK AO1 PRESRR SLP052
SPECI CYNL 170339Z AUTO 00008KT SCT009 BKN012 OVC014 06/05 A2965 RMK AO1 PRESRR SLP052
SPECI CYNL 170338Z AUTO 00008KT BKN009 BKN012 OVC014 06/05 A2964 RMK AO1 PRESRR SLP051
SPECI CYNL 170337Z AUTO 00008KT SCT009 BKN012 OVC014 06/05 A2964 RMK AO1 PRESRR SLP051
SPECI CYNL 170336Z AUTO 00008KT BKN009 BKN012 OVC014 06/05 A2964 RMK AO1 PRESRR SLP051
SPECI CYNL 170311Z AUTO 00008KT SCT008 BKN010 BKN012 06/05 A2963 RMK AO1 PRESRR SLP048
METAR CYNL 170300Z AUTO 00009KT BKN009 OVC012 06/05 A2963 RMK AO1 PRESRR SLP046
SPECI CYNL 170251Z AUTO 00008KT BKN008 BKN011 OVC016 06/05 A2962 RMK AO1 PRESRR SLP045
SPECI CYNL 170240Z AUTO 01008KT FEW009 BKN011 BKN016 07/05 A2962 RMK AO1 PRESRR SLP043
SPECI CYNL 170224Z AUTO 01008KT SCT011 BKN014 07/05 A2961 RMK AO1 PRESRR SLP040
SPECI CYNL 170223Z AUTO 01008KT SCT011 BKN016 BKN021 07/05 A2961 RMK AO1 PRESRR SLP040
SPECI CYNL 170222Z AUTO 01007KT SCT011 BKN014 BKN016 07/05 A2961 RMK AO1 PRESRR SLP040
SPECI CYNL 170221Z AUTO 01007KT SCT011 BKN016 07/05 A2961 RMK AO1 PRESRR SLP040
METAR CYNL 170200Z AUTO 01009G19KT SCT011 BKN014 BKN017 07/06 A2960 RMK AO1 PRESRR SLP036
SPECI CYNL 170119Z AUTO 01011KT BKN011 BKN019 07/06 A2957 RMK AO1 PRESRR SLP027
METAR CYNL 170100Z AUTO 01007KT SCT015 BKN026 07/06 A2956 RMK AO1 PRESRR SLP023
SPECI CYNL 170047Z AUTO 02010G16KT FEW011 SCT017 BKN026 07/06 A2955 RMK AO1 PRESRR SLP022
SPECI CYNL 170015Z AUTO 02014G19KT FEW009 SCT012 BKN020 07/06 A2953 RMK AO1 PRESRR SLP014
SPECI CYNL 170011Z AUTO 01010G17KT SCT011 BKN016 08/07 A2952 RMK AO1 PRESRR SLP013
SPECI CYNL 170010Z AUTO 02010G17KT BKN012 08/07 A2952 RMK AO1 PRESRR SLP013
SPECI CYNL 170003Z AUTO 01012G17KT FEW009 SCT013 BKN016 07/07 A2952 RMK AO1 PRESRR SLP011
METAR CYNL 170000Z AUTO 01008G15KT VV015 07/07 A2951 RMK AO1 PRESRR SLP010
SPECI CYNL 162356Z AUTO 02010G19KT FEW009 SCT012 BKN017 07/07 A2951 RMK AO1 PRESRR SLP009
SPECI CYNL 162332Z AUTO 02010G16KT SCT011 BKN029 08/07 A2949 RMK AO1 PRESRR SLP002
SPECI CYNL 162318Z AUTO 02011G20KT FEW008 SCT011 BKN033 08/06 A2948 RMK AO1 PRESRR SLP999
SPECI CYNL 162304Z AUTO 02009G16KT FEW007 BKN012 08/07 A2947 RMK AO1 PRESRR SLP995
SPECI CYNL 162302Z AUTO 02009G17KT FEW007 SCT012 BKN015 08/07 A2947 RMK AO1 PRESRR SLP994
METAR CYNL 162300Z AUTO 02011G17KT FEW008 BKN013 08/07 A2947 RMK AO1 PRESRR SLP993
SPECI CYNL 162251Z AUTO 02010G17KT FEW007 SCT009 BKN015 08/07 A2946 RMK AO1 PRESRR SLP991
SPECI CYNL 162247Z AUTO 03013G19KT SCT009 BKN012 BKN015 08/07 A2946 RMK AO1 PRESRR SLP990
SPECI CYNL 162246Z AUTO 02012G19KT VV013 08/07 A2946 RMK AO1 PRESRR SLP990
SPECI CYNL 162240Z AUTO 03010G25KT VV017 08/07 A2945 RMK AO1 PRESRR SLP988
SPECI CYNL 162217Z AUTO 01010G21KT FEW008 BKN010 BKN015 08/07 A2943 RMK AO1 PRESRR SLP982
SPECI CYNL 162216Z AUTO 01011G21KT SCT008 BKN015 08/07 A2943 RMK AO1 PRESRR SLP982
SPECI CYNL 162201Z AUTO 01009G21KT FEW008 BKN011 BKN015 08/07 A2942 RMK AO1 PRESRR SLP978
METAR CYNL 162200Z AUTO 02010G21KT FEW008 SCT011 BKN015 08/07 A2942 RMK AO1 PRESRR SLP978
SPECI CYNL 162153Z AUTO 01014G21KT FEW008 SCT012 BKN015 08/07 A2942 RMK AO1 PRESRR SLP976
SPECI CYNL 162150Z AUTO 01010G18KT FEW008 BKN012 BKN020 08/07 A2941 RMK AO1 PRESRR SLP975
SPECI CYNL 162139Z AUTO 02011G17KT FEW008 SCT012 BKN016 08/07 A2941 RMK AO1 PRESRR SLP972
SPECI CYNL 162133Z AUTO 01009G15KT FEW008 SCT010 BKN014 08/07 A2940 RMK AO1 PRESRR SLP971
SPECI CYNL 162131Z AUTO 00006KT BKN010 BKN020 OVC027 08/07 A2940 RMK AO1 PRESRR SLP971
SPECI CYNL 162124Z AUTO 00007KT VV021 09/07 A2940 RMK AO1 PRESRR SLP969
SPECI CYNL 162123Z AUTO 35007KT SCT010 BKN014 BKN027 09/07 A2940 RMK AO1 PRESRR SLP969
SPECI CYNL 162121Z AUTO 01007KT SCT010 BKN015 BKN025 09/07 A2940 RMK AO1 PRESRR SLP969
SPECI CYNL 162106Z AUTO 35006KT FEW008 BKN010 BKN013 08/06 A2939 RMK AO1 PRESRR SLP967
SPECI CYNL 162102Z AUTO 35006KT BKN009 OVC015 08/06 A2939 RMK AO1 PRESRR SLP966
METAR CYNL 162100Z AUTO 34008KT SCT009 BKN012 OVC015 08/06 A2939 RMK AO1 PRESRR SLP966
SPECI CYNL 162039Z AUTO 33005KT FEW009 BKN013 BKN016 08/06 A2938 RMK AO1 PRESRR SLP964
SPECI CYNL 162037Z AUTO 32006KT FEW010 BKN012 BKN016 08/06 A2938 RMK AO1 PRESRR SLP963
SPECI CYNL 162036Z AUTO 33006KT FEW010 SCT012 BKN016 08/06 A2938 RMK AO1 PRESRR SLP963
SPECI CYNL 162032Z AUTO 35007KT BKN012 BKN016 08/06 A2938 RMK AO1 PRESRR SLP963
SPECI CYNL 162012Z AUTO 33008KT FEW011 BKN015 BKN028 08/05 A2937 RMK AO1 PRESRR SLP960
SPECI CYNL 162011Z AUTO 33007KT FEW011 BKN014 BKN028 08/05 A2937 RMK AO1 PRESRR SLP959
METAR CYNL 162000Z AUTO 33007KT FEW014 BKN018 BKN030 08/05 A2937 RMK AO1 PRESRR SLP957
SPECI CYNL 161958Z AUTO 32007KT FEW014 SCT018 BKN023 09/05 A2936 RMK AO1 PRESRR SLP957
SPECI CYNL 161956Z AUTO 32005KT FEW014 SCT018 BKN029 09/05 A2936 RMK AO1 SLP957
SPECI CYNL 161955Z AUTO 32005KT FEW014 SCT018 BKN024 08/05 A2936 RMK AO1 SLP957
SPECI CYNL 161918Z AUTO 33006KT FEW016 BKN029 BKN035 08/05 A2935 RMK AO1 SLP951
METAR CYNL 161900Z AUTO 31007KT SCT022 BKN034 09/04 A2933 RMK AO1 SLP947
SPECI CYNL 161808Z AUTO 33004KT FEW014 SCT026 BKN032 08/05 A2932 RMK AO1 PRESRR SLP940
METAR CYNL 161800Z AUTO 35006KT FEW013 BKN025 08/05 A2932 RMK AO1 PRESRR SLP939
SPECI CYNL 161758Z AUTO 35005KT FEW013 BKN025 08/05 A2932 RMK AO1 PRESRR SLP938
SPECI CYNL 161757Z AUTO 35005KT FEW013 SCT025 BKN060 08/05 A2931 RMK AO1 PRESRR SLP938
SPECI CYNL 161746Z AUTO 01004KT FEW013 BKN023 08/05 A2931 RMK AO1 PRESRR SLP937
METAR CYNL 161700Z AUTO 00007KT FEW047 08/05 A2929 RMK AO1 PRESRR SLP930
METAR CYNL 161600Z AUTO 01004KT OVC044 07/05 A2927 RMK AO1 PRESRR SLP924
METAR CYNL 161500Z AUTO 00005KT CLR 06/05 A2924 RMK AO1 SLP915
METAR CYNL 161400Z AUTO 00000KT OVC040 05/05 A2923 RMK AO1 SLP913
METAR CYNL 161300Z AUTO 00000KT OVC034 03/03 A2922 RMK AO1 SLP910
METAR CYNL 161200Z AUTO 00000KT CLR 02/02 A2921 RMK AO1 SLP904
METAR CYNL 161100Z AUTO 00000KT CLR 02/02 A2920 RMK AO1 SLP901
METAR CYNL 161000Z AUTO 00000KT FEW070 03/03 A2919 RMK AO1 SLP898
METAR CYNL 160900Z AUTO 08003KT BKN086 03/03 A2919 RMK AO1 SLP898
METAR CYNL 160800Z AUTO 08003KT CLR 02/02 A2920 RMK AO1 SLP900
METAR CYNL 160700Z AUTO 14002KT SCT039 04/03 A2921 RMK AO1 SLP900
METAR CYNL 160600Z AUTO 20003KT BKN052 05/03 A2923 RMK AO1 SLP904
METAR CYNL 160500Z AUTO 23004KT CLR 04/03 A2923 RMK AO1 SLP907
METAR CYNL 160400Z AUTO 20005KT CLR 05/03 A2925 RMK AO1 SLP913
METAR CYNL 160300Z AUTO 19004KT CLR 05/04 A2926 RMK AO1 SLP918
METAR CYNL 160200Z AUTO 26005KT CLR 06/03 A2927 RMK AO1 SLP921
SPECI CYNL 160127Z AUTO ///// FEW007 SCT023 BKN045 07/05 A2928 RMK AO1 SLP924
METAR CYNL 160100Z AUTO 21004KT CLR 08/07 A2926 RMK AO1 SLP916
METAR CYNL 160000Z AUTO 22005KT CLR 08/07 A2927 RMK AO1 SLP918
METAR CYNL 152300Z AUTO 26006KT FEW018 08/07 A2926 RMK AO1 SLP916
SPECI CYNL 152202Z AUTO 27008G16KT FEW008 SCT013 08/07 A2925 RMK AO1 PRESRR SLP912
METAR CYNL 152200Z AUTO 26009G16KT SCT008 BKN016 08/07 A2925 RMK AO1 PRESRR SLP912
SPECI CYNL 152154Z AUTO 26008G19KT SCT008 BKN014 08/07 A2925 RMK AO1 SLP912
SPECI CYNL 152153Z AUTO 26009G19KT SCT008 BKN015 OVC034 08/07 A2925 RMK AO1 SLP912
SPECI CYNL 152152Z AUTO 26010G19KT SCT008 OVC014 08/07 A2925 RMK AO1 SLP913
SPECI CYNL 152141Z AUTO 27007G16KT BKN008 OVC028 08/08 A2924 RMK AO1 SLP910
SPECI CYNL 152139Z AUTO 27008G16KT SCT008 BKN010 OVC028 08/08 A2924 RMK AO1 SLP910
SPECI CYNL 152137Z AUTO 28008G16KT BKN008 OVC026 08/07 A2924 RMK AO1 SLP910
SPECI CYNL 152119Z AUTO 28011G20KT FEW008 SCT012 BKN022 08/07 A2924 RMK AO1 SLP910
SPECI CYNL 152117Z AUTO 28012G20KT FEW006 SCT011 OVC027 08/07 A2924 RMK AO1 SLP910
SPECI CYNL 152116Z AUTO 28011G20KT FEW007 SCT017 BKN023 08/07 A2924 RMK AO1 SLP910
SPECI CYNL 152115Z AUTO 28009G23KT FEW007 SCT012 OVC026 08/07 A2924 RMK AO1 SLP910
SPECI CYNL 152108Z AUTO 27012G23KT FEW006 SCT010 BKN018 08/08 A2924 RMK AO1 SLP909
SPECI CYNL 152103Z AUTO 26011G19KT FEW006 SCT009 BKN012 09/09 A2923 RMK AO1 SLP906
METAR CYNL 152100Z AUTO 24006KT FEW007 SCT012 BKN018 09/09 A2923 RMK AO1 SLP904
SPECI CYNL 152036Z AUTO 24006KT FEW006 SCT010 BKN020 09/09 A2923 RMK AO1 SLP904
SPECI CYNL 152032Z AUTO 24005G17KT FEW006 SCT010 BKN035 09/09 A2923 RMK AO1 SLP903
SPECI CYNL 152030Z AUTO 24006G21KT SCT006 BKN024 OVC035 09/09 A2923 RMK AO1 SLP903
SPECI CYNL 152026Z AUTO 24007G21KT SCT006 BKN010 BKN024 10/09 A2923 RMK AO1 SLP902
SPECI CYNL 152025Z AUTO 24008G21KT VV016 10/09 A2923 RMK AO1 SLP902
SPECI CYNL 152022Z AUTO 21015G21KT VV010 10/10 A2922 RMK AO1 SLP901
SPECI CYNL 152013Z AUTO 18006KT BKN006 BKN026 OVC031 10/10 A2922 RMK AO1 SLP898
SPECI CYNL 152009Z AUTO 18008KT SCT006 BKN012 BKN026 10/10 A2922 RMK AO1 SLP899
SPECI CYNL 152004Z AUTO 18007KT SCT006 BKN017 BKN025 10/10 A2922 RMK AO1 SLP899
METAR CYNL 152000Z AUTO 18005KT FEW007 SCT017 BKN026 10/10 A2922 RMK AO1 SLP898
SPECI CYNL 151956Z AUTO 18006KT FEW008 BKN026 OVC033 10/10 A2922 RMK AO1 SLP897
SPECI CYNL 151955Z AUTO 17006KT FEW017 SCT026 OVC033 10/10 A2922 RMK AO1 SLP897
SPECI CYNL 151954Z AUTO 17006KT FEW017 BKN027 OVC034 10/10 A2922 RMK AO1 SLP897
SPECI CYNL 151947Z AUTO 18006KT FEW015 SCT025 OVC034 10/10 A2922 RMK AO1 SLP898
SPECI CYNL 151945Z AUTO 17007KT VV027 10/10 A2922 RMK AO1 SLP898
SPECI CYNL 151944Z AUTO 17007KT SCT025 BKN034 OVC045 10/10 A2922 RMK AO1 SLP898
SPECI CYNL 151937Z AUTO 18006KT VV029 11/10 A2922 RMK AO1 SLP899
SPECI CYNL 151910Z AUTO 17008KT VV030 11/10 A2923 RMK AO1 SLP901
SPECI CYNL 151909Z AUTO 17008KT VV026 11/10 A2923 RMK AO1 SLP901
SPECI CYNL 151905Z AUTO 17009KT VV016 11/10 A2923 RMK AO1 SLP902
SPECI CYNL 151902Z AUTO 17010KT FEW009 11/09 A2923 RMK AO1 SLP902
METAR CYNL 151900Z AUTO 17010KT FEW023 11/09 A2923 RMK AO1 SLP902
METAR CYNL 151800Z AUTO 19009G16KT FEW080 13/09 A2925 RMK AO1 PRESFR SLP906
METAR CYNL 151700Z AUTO 14008KT SCT066 11/09 A2927 RMK AO1 PRESFR SLP917
METAR CYNL 151600Z AUTO 12006KT FEW005 BKN064 10/10 A2930 RMK AO1 PRESFR SLP925
SPECI CYNL 151537Z AUTO 12003KT FEW004 SCT064 10/10 A2931 RMK AO1 PRESFR SLP929
METAR CYNL 151500Z AUTO 13004KT FEW035 09/09 A2933 RMK AO1 PRESFR SLP936
METAR CYNL 151400Z AUTO 14004KT SCT060 09/08 A2936 RMK AO1 PRESFR SLP947
METAR CYNL 151300Z AUTO 12003KT SCT049 08/08 A2938 RMK AO1 PRESFR SLP956
METAR CYNL 151200Z AUTO 00000KT FEW040 BKN048 09/07 A2941 RMK AO1 PRESFR SLP964
METAR CYNL 151100Z AUTO 12003KT FEW033 SCT068 09/07 A2943 RMK AO1 PRESFR SLP968
METAR CYNL 151000Z AUTO 17005KT FEW058 09/06 A2946 RMK AO1 PRESFR SLP976
METAR CYNL 150900Z AUTO 16003KT CLR 08/07 A2948 RMK AO1 SLP985
METAR CYNL 150800Z AUTO 19004KT CLR 09/07 A2950 RMK AO1 SLP992
METAR CYNL 150700Z AUTO 20005KT CLR 09/07 A2952 RMK AO1 PRESFR SLP999
METAR CYNL 150600Z AUTO 22004KT CLR 09/06 A2954 RMK AO1 PRESFR SLP008
METAR CYNL 150500Z AUTO 20004KT CLR 09/06 A2956 RMK AO1 SLP016
METAR CYNL 150400Z AUTO 21003KT FEW200 10/06 A2958 RMK AO1 PRESFR SLP022
METAR CYNL 150300Z AUTO 21004KT SCT068 10/06 A2961 RMK AO1 SLP031
METAR CYNL 150200Z AUTO 18004KT CLR 11/06 A2962 RMK AO1 SLP035
METAR CYNL 150100Z AUTO 19003KT CLR 12/07 A2963 RMK AO1 SLP040
METAR CYNL 150000Z AUTO 20003KT CLR 14/06 A2965 RMK AO1 SLP044
METAR CYNL 142300Z AUTO 23005KT FEW070 15/05 A2966 RMK AO1 SLP048
METAR CYNL 142200Z AUTO 21005KT FEW066 15/05 A2968 RMK AO1 SLP052
METAR CYNL 142100Z AUTO 22009KT FEW037 14/05 A2969 RMK AO1 SLP058
METAR CYNL 142000Z AUTO 24006KT CLR 13/04 A2970 RMK AO1 SLP062
METAR CYNL 141900Z AUTO 20005KT SCT032 12/04 A2971 RMK AO1 SLP067
METAR CYNL 141800Z AUTO 24008KT BKN031 11/04 A2973 RMK AO1 SLP074
SPECI CYNL 141746Z AUTO 27007KT SCT027 BKN036 11/04 A2973 RMK AO1 SLP073
SPECI CYNL 141745Z AUTO 26007KT BKN029 BKN037 11/04 A2973 RMK AO1 SLP073
SPECI CYNL 141743Z AUTO 25007KT FEW019 SCT028 BKN037 11/04 A2973 RMK AO1 SLP074
SPECI CYNL 141741Z AUTO 25006KT FEW019 BKN029 BKN037 11/05 A2973 RMK AO1 SLP074
METAR CYNL 141700Z AUTO 25004KT OVC037 10/06 A2974 RMK AO1 SLP079
METAR CYNL 141600Z AUTO 25003KT OVC039 09/07 A2975 RMK AO1 SLP082
METAR CYNL 141500Z AUTO 29004KT FEW005 OVC041 09/08 A2975 RMK AO1 SLP083
SPECI CYNL 141433Z AUTO 25004KT FEW005 OVC041 08/08 A2976 RMK AO1 SLP084
METAR CYNL 141400Z AUTO 28005KT OVC040 08/08 A2975 RMK AO1 SLP082
METAR CYNL 141300Z AUTO 30003KT OVC038 08/08 A2974 RMK AO1 SLP080
METAR CYNL 141200Z AUTO 29003KT OVC040 08/08 A2973 RMK AO1 SLP076
METAR CYNL 141100Z AUTO 28003KT OVC040 08/08 A2973 RMK AO1 SLP074
METAR CYNL 141000Z AUTO 28004KT OVC043 08/08 A2973 RMK AO1 SLP075
METAR CYNL 140900Z AUTO 28004KT OVC045 08/08 A2972 RMK AO1 SLP071
METAR CYNL 140800Z AUTO 27004KT OVC047 08/08 A2972 RMK AO1 SLP071
METAR CYNL 140700Z AUTO 29004KT CLR 08/08 A2972 RMK AO1 SLP069
METAR CYNL 140600Z AUTO 31004KT SCT009 BKN033 09/09 A2971 RMK AO1 SLP066
SPECI CYNL 140556Z AUTO 30005KT SCT009 BKN011 09/09 A2971 RMK AO1 SLP066
SPECI CYNL 140546Z AUTO 30005KT SCT008 BKN038 09/09 A2971 RMK AO1 SLP066
SPECI CYNL 140530Z AUTO 28004KT BKN008 09/09 A2971 RMK AO1 SLP066
SPECI CYNL 140506Z AUTO 29003KT FEW008 BKN032 09/09 A2971 RMK AO1 SLP065
METAR CYNL 140500Z AUTO 28004KT BKN032 09/09 A2971 RMK AO1 SLP065
METAR CYNL 140400Z AUTO 33008KT FEW011 SCT024 BKN031 09/09 A2971 RMK AO1 SLP064
METAR CYNL 140300Z AUTO 29006KT FEW044 10/09 A2970 RMK AO1 SLP062
METAR CYNL 140200Z AUTO 26004KT FEW014 OVC068 09/09 A2969 RMK AO1 SLP062
METAR CYNL 140100Z AUTO 29005KT BKN064 10/09 A2968 RMK AO1 SLP056
METAR CYNL 140000Z AUTO 30005KT FEW036 SCT062 11/09 A2968 RMK AO1 SLP054
SPECI CYNL 132308Z AUTO 30003KT FEW008 SCT056 10/10 A2967 RMK AO1 SLP053
METAR CYNL 132300Z AUTO 31003KT FEW040 10/09 A2967 RMK AO1 SLP054
SPECI CYNL 132218Z AUTO 34006G17KT SCT013 BKN046 11/10 A2967 RMK AO1 SLP050
SPECI CYNL 132216Z AUTO 34008G17KT VV027 11/09 A2967 RMK AO1 SLP050
METAR CYNL 132200Z AUTO 31006KT FEW013 SCT017 12/11 A2966 RMK AO1 SLP049
SPECI CYNL 132146Z AUTO 30007KT FEW006 SCT019 BKN031 11/11 A2966 RMK AO1 SLP047
SPECI CYNL 132145Z AUTO 30008KT VV027 11/11 A2966 RMK AO1 SLP047
SPECI CYNL 132117Z AUTO 28007KT FEW011 SCT019 BKN023 12/10 A2966 RMK AO1 SLP045
METAR CYNL 132100Z AUTO 29008KT FEW017 12/10 A2965 RMK AO1 SLP045
SPECI CYNL 132046Z AUTO 29007KT FEW009 SCT012 12/10 A2965 RMK AO1 SLP043
SPECI CYNL 132044Z AUTO 27007KT FEW008 SCT012 BKN025 12/10 A2965 RMK AO1 SLP043
SPECI CYNL 132041Z AUTO 28006KT FEW008 SCT012 BKN017 12/11 A2965 RMK AO1 SLP044
SPECI CYNL 132040Z AUTO 28006KT FEW008 SCT012 BKN025 12/11 A2965 RMK AO1 SLP044
SPECI CYNL 132036Z AUTO 28008KT FEW009 SCT012 BKN017 11/10 A2965 RMK AO1 SLP044
SPECI CYNL 132034Z AUTO 28007KT FEW009 SCT012 BKN026 11/11 A2965 RMK AO1 SLP044
SPECI CYNL 132032Z AUTO 28007KT FEW009 SCT012 BKN240 11/11 A2965 RMK AO1 SLP044
SPECI CYNL 132031Z AUTO 28005KT FEW009 SCT012 BKN026 11/11 A2965 RMK AO1 SLP044
METAR CYNL 132000Z AUTO 27007KT FEW009 SCT033 BKN048 11/11 A2965 RMK AO1 SLP044
SPECI CYNL 131953Z AUTO 27005KT FEW009 SCT023 BKN047 11/10 A2965 RMK AO1 SLP044
SPECI CYNL 131949Z AUTO 27006KT FEW010 SCT028 BKN038 11/10 A2965 RMK AO1 SLP044
SPECI CYNL 131948Z AUTO 27006KT FEW010 BKN028 BKN043 11/10 A2965 RMK AO1 SLP044
SPECI CYNL 131943Z AUTO 28008KT VV031 11/10 A2965 RMK AO1 SLP044
METAR CYNL 131900Z AUTO 29006KT FEW011 OVC020 12/10 A2965 RMK AO1 SLP043
SPECI CYNL 131836Z AUTO 28008G15KT SCT011 OVC017 12/10 A2965 RMK AO1 SLP044
SPECI CYNL 131830Z AUTO 27006KT BKN012 OVC018 12/10 A2965 RMK AO1 SLP043
SPECI CYNL 131810Z AUTO 27007KT FEW012 BKN017 12/10 A2965 RMK AO1 SLP042
METAR CYNL 131800Z AUTO 28004KT FEW011 SCT015 12/10 A2965 RMK AO1 SLP043
SPECI CYNL 131739Z AUTO 29006KT FEW009 SCT013 BKN042 12/10 A2965 RMK AO1 SLP043
SPECI CYNL 131735Z AUTO 28003KT FEW009 SCT013 BKN016 12/11 A2965 RMK AO1 SLP043
SPECI CYNL 131725Z AUTO 27005KT FEW009 SCT013 BKN042 11/10 A2965 RMK AO1 SLP044
SPECI CYNL 131724Z AUTO 28005KT FEW009 SCT013 BKN020 11/10 A2965 RMK AO1 SLP044
SPECI CYNL 131718Z AUTO 28007KT FEW007 SCT009 BKN013 11/10 A2966 RMK AO1 SLP045
SPECI CYNL 131717Z AUTO 28008KT FEW007 SCT009 BKN020 11/10 A2966 RMK AO1 SLP045
METAR CYNL 131700Z AUTO 28005KT FEW007 11/11 A2966 RMK AO1 SLP045
SPECI CYNL 131633Z AUTO 27005KT SCT007 BKN044 11/11 A2966 RMK AO1 SLP045
METAR CYNL 131600Z AUTO 28004KT BKN006 10/10 A2966 RMK AO1 SLP047
SPECI CYNL 131519Z AUTO 27005KT VV005 10/10 A2967 RMK AO1 SLP050
SPECI CYNL 131514Z AUTO 28006KT FEW005 10/10 A2967 RMK AO1 SLP050
METAR CYNL 131500Z AUTO 28004KT FEW027 SCT041 10/10 A2967 RMK AO1 SLP052
METAR CYNL 131400Z AUTO 30002KT FEW041 10/10 A2968 RMK AO1 SLP055
SPECI CYNL 131303Z AUTO 28004KT SCT017 10/10 A2969 RMK AO1 SLP056
METAR CYNL 131300Z AUTO 27003KT FEW014 BKN019 10/10 A2969 RMK AO1 SLP056
SPECI CYNL 131242Z AUTO 26004KT SCT014 BKN017 BKN023 09/09 A2969 RMK AO1 SLP057
SPECI CYNL 131241Z AUTO 27003KT BKN014 BKN023 OVC039 09/09 A2969 RMK AO1 SLP057
SPECI CYNL 131222Z AUTO 00000KT FEW007 BKN024 OVC039 09/09 A2969 RMK AO1 SLP059
SPECI CYNL 131215Z AUTO 27002KT FEW004 SCT019 BKN026 09/09 A2969 RMK AO1 SLP058
SPECI CYNL 131211Z AUTO 00000KT VV024 09/09 A2969 RMK AO1 SLP058
SPECI CYNL 131209Z AUTO 26002KT VV029 09/09 A2969 RMK AO1 SLP058
SPECI CYNL 131204Z AUTO 00000KT VV030 09/09 A2969 RMK AO1 SLP058
METAR CYNL 131200Z AUTO 00000KT VV027 10/10 A2969 RMK AO1 SLP058
SPECI CYNL 131158Z AUTO 26002KT VV026 10/10 A2969 RMK AO1 SLP059
SPECI CYNL 131151Z AUTO 24002KT VV021 10/10 A2969 RMK AO1 SLP059
SPECI CYNL 131150Z AUTO 24002KT VV026 10/10 A2969 RMK AO1 SLP059
METAR CYNL 131100Z AUTO 25002KT SCT022 10/10 A2970 RMK AO1 SLP062
SPECI CYNL 131053Z AUTO 00000KT SCT022 BKN042 10/10 A2971 RMK AO1 PRESFR SLP063
SPECI CYNL 131025Z AUTO 27003KT FEW003 SCT007 BKN020 10/10 A2971 RMK AO1 PRESFR SLP065
SPECI CYNL 131017Z AUTO 00000KT FEW003 BKN007 BKN039 10/10 A2972 RMK AO1 PRESFR SLP066
SPECI CYNL 131014Z AUTO 00000KT FEW003 SCT007 BKN020 10/10 A2972 RMK AO1 PRESFR SLP066
SPECI CYNL 131010Z AUTO 22002KT SCT007 BKN028 10/10 A2972 RMK AO1 PRESFR SLP067
SPECI CYNL 131008Z AUTO 23002KT SCT007 BKN040 10/10 A2972 RMK AO1 PRESFR SLP067
SPECI CYNL 131005Z AUTO 23002KT SCT007 BKN028 10/10 A2972 RMK AO1 PRESFR SLP067
SPECI CYNL 131001Z AUTO 00000KT SCT007 BKN020 BKN028 10/10 A2972 RMK AO1 PRESFR SLP068
METAR CYNL 131000Z AUTO 23002KT VV013 10/10 A2972 RMK AO1 PRESFR SLP068
SPECI CYNL 130958Z AUTO 23003KT VV014 10/10 A2972 RMK AO1 PRESFR SLP069
SPECI CYNL 130953Z AUTO 23003KT VV023 11/11 A2972 RMK AO1 SLP069
SPECI CYNL 130951Z AUTO 22003KT VV025 11/11 A2972 RMK AO1 SLP069
SPECI CYNL 130947Z AUTO 21003KT VV015 11/11 A2973 RMK AO1 SLP070
SPECI CYNL 130946Z AUTO 21003KT VV013 11/11 A2973 RMK AO1 SLP070
SPECI CYNL 130944Z AUTO 21003KT VV009 11/11 A2973 RMK AO1 SLP070
SPECI CYNL 130939Z AUTO 21003KT VV011 11/11 A2973 RMK AO1 SLP071
SPECI CYNL 130934Z AUTO 21003KT FEW007 OVC028 11/11 A2973 RMK AO1 SLP072
SPECI CYNL 130902Z AUTO 24005KT OVC025 11/11 A2974 RMK AO1 SLP075
SPECI CYNL 130901Z AUTO 24005KT FEW012 OVC024 11/11 A2974 RMK AO1 SLP075
METAR CYNL 130900Z AUTO 24005KT FEW012 OVC025 11/11 A2974 RMK AO1 SLP075
SPECI CYNL 130849Z AUTO 22006KT SCT012 OVC025 11/11 A2974 RMK AO1 SLP077
SPECI CYNL 130847Z AUTO 22006KT SCT012 BKN024 OVC031 11/11 A2975 RMK AO1 SLP077
SPECI CYNL 130845Z AUTO 22005KT FEW009 SCT013 BKN025 11/11 A2975 RMK AO1 SLP077
SPECI CYNL 130841Z AUTO 21007KT VV026 11/11 A2975 RMK AO1 SLP078
SPECI CYNL 130840Z AUTO 21006KT FEW009 SCT013 BKN021 11/11 A2975 RMK AO1 SLP078
SPECI CYNL 130836Z AUTO 22005KT SCT012 BKN019 OVC038 11/11 A2975 RMK AO1 SLP078
SPECI CYNL 130835Z AUTO 21005KT BKN012 OVC038 11/11 A2975 RMK AO1 SLP078
SPECI CYNL 130834Z AUTO 21005KT FEW009 SCT013 BKN018 11/11 A2975 RMK AO1 SLP078
SPECI CYNL 130833Z AUTO 22005KT FEW009 BKN012 OVC038 11/11 A2975 RMK AO1 SLP078
SPECI CYNL 130832Z AUTO 21005KT FEW009 SCT012 BKN017 11/11 A2975 RMK AO1 SLP078
SPECI CYNL 130831Z AUTO 21005KT SCT012 BKN017 OVC038 11/11 A2975 RMK AO1 SLP078
METAR CYNL 130800Z AUTO 21005KT VV036 11/11 A2976 RMK AO1 SLP081
METAR CYNL 130700Z AUTO 22009KT FEW038 12/10 A2977 RMK AO1 SLP087
METAR CYNL 130600Z AUTO 22006KT FEW020 SCT054 11/10 A2978 RMK AO1 SLP092
METAR CYNL 130500Z AUTO 21006KT FEW016 12/11 A2979 RMK AO1 SLP095
METAR CYNL 130400Z AUTO 21007KT SCT066 12/12 A2980 RMK AO1 SLP098
SPECI CYNL 130302Z AUTO 20007KT FEW009 SCT016 BKN062 12/12 A2981 RMK AO1 SLP102
METAR CYNL 130300Z AUTO 20007KT SCT016 BKN062 12/12 A2981 RMK AO1 SLP102
SPECI CYNL 130257Z AUTO 20007KT SCT016 BKN062 12/12 A2981 RMK AO1 SLP102
SPECI CYNL 130256Z AUTO 20007KT BKN016 12/12 A2981 RMK AO1 SLP102
SPECI CYNL 130255Z AUTO 20008KT SCT016 12/12 A2981 RMK AO1 SLP103
SPECI CYNL 130254Z AUTO 19007KT BKN015 12/12 A2981 RMK AO1 SLP103
SPECI CYNL 130247Z AUTO 20008KT SCT016 12/12 A2981 RMK AO1 SLP103
SPECI CYNL 130233Z AUTO 19007KT FEW011 BKN015 12/11 A2981 RMK AO1 SLP103
SPECI CYNL 130218Z AUTO 19008KT BKN013 12/11 A2982 RMK AO1 SLP104
METAR CYNL 130200Z AUTO 19007KT FEW010 SCT013 BKN021 12/11 A2982 RMK AO1 SLP104
SPECI CYNL 130139Z AUTO 19008KT SCT011 BKN021 12/11 A2982 RMK AO1 SLP105
SPECI CYNL 130134Z AUTO 20006KT BKN011 BKN021 12/11 A2982 RMK AO1 SLP106
SPECI CYNL 130133Z AUTO 19008KT SCT011 BKN021 12/11 A2982 RMK AO1 SLP106
SPECI CYNL 130131Z AUTO 20009KT BKN011 BKN022 12/11 A2982 RMK AO1 SLP106
SPECI CYNL 130108Z AUTO 20009KT SCT012 BKN023 BKN088 12/11 A2982 RMK AO1 SLP104
METAR CYNL 130100Z AUTO 20009KT BKN012 BKN023 13/11 A2982 RMK AO1 SLP105
SPECI CYNL 130054Z AUTO 20009G16KT BKN012 BKN023 13/11 A2982 RMK AO1 SLP105
SPECI CYNL 130053Z AUTO 20008G16KT SCT012 BKN015 BKN023 13/11 A2982 RMK AO1 SLP105
SPECI CYNL 130052Z AUTO 20009G16KT BKN012 BKN023 13/11 A2982 RMK AO1 SLP105
SPECI CYNL 130043Z AUTO 20009G16KT SCT012 BKN015 13/11 A2982 RMK AO1 SLP106
SPECI CYNL 130040Z AUTO 20008G16KT BKN012 13/11 A2982 RMK AO1 SLP107
SPECI CYNL 130029Z AUTO 20010G17KT SCT012 BKN015 13/11 A2983 RMK AO1 SLP108
METAR CYNL 130000Z AUTO 19009KT BKN013 OVC016 12/10 A2983 RMK AO1 SLP110
SPECI CYNL 122358Z AUTO 18007KT BKN013 OVC016 12/10 A2983 RMK AO1 SLP110
SPECI CYNL 122356Z AUTO 18007KT SCT013 OVC017 12/10 A2983 RMK AO1 SLP110
SPECI CYNL 122355Z AUTO 18007KT BKN014 OVC017 12/10 A2983 RMK AO1 SLP111
METAR CYNL 122300Z AUTO 16007KT OVC024 12/09 A2985 RMK AO1 SLP116
SPECI CYNL 122248Z AUTO 17004KT OVC024 12/09 A2985 RMK AO1 PRESFR SLP119
METAR CYNL 122200Z AUTO 15006KT OVC026 11/09 A2987 RMK AO1 PRESFR SLP124
METAR CYNL 122100Z AUTO 15007KT OVC025 10/08 A2989 RMK AO1 PRESFR SLP133
SPECI CYNL 122049Z AUTO 16007KT OVC025 10/08 A2989 RMK AO1 PRESFR SLP136
SPECI CYNL 122011Z AUTO 15008KT FEW009 OVC023 09/08 A2991 RMK AO1 PRESFR SLP142
METAR CYNL 122000Z AUTO 16007KT FEW010 SCT013 OVC023 09/08 A2991 RMK AO1 PRESFR SLP144
SPECI CYNL 121952Z AUTO 16008KT SCT010 OVC023 09/07 A2991 RMK AO1 SLP146
SPECI CYNL 121939Z AUTO 15009KT SCT010 BKN013 BKN023 08/07 A2992 RMK AO1 SLP147
SPECI CYNL 121905Z AUTO 16009G16KT SCT010 OVC023 08/07 A2993 RMK AO1 SLP152
METAR CYNL 121900Z AUTO 15007G16KT SCT010 BKN013 OVC023 08/07 A2993 RMK AO1 SLP152
SPECI CYNL 121838Z AUTO 16010G17KT FEW008 BKN010 BKN023 08/07 A2994 RMK AO1 SLP154
METAR CYNL 121800Z AUTO 17009KT BKN010 BKN034 08/07 A2995 RMK AO1 SLP159
SPECI CYNL 121751Z AUTO 16011KT SCT009 BKN011 BKN013 08/07 A2995 RMK AO1 PRESFR SLP160
SPECI CYNL 121748Z AUTO 17009G16KT BKN009 BKN014 OVC036 08/07 A2995 RMK AO1 PRESFR SLP160
SPECI CYNL 121747Z AUTO 17010G16KT BKN010 BKN013 OVC036 08/07 A2995 RMK AO1 PRESFR SLP160
SPECI CYNL 121718Z AUTO 15010G17KT BKN009 BKN012 OVC032 07/06 A2995 RMK AO1 PRESFR SLP162
SPECI CYNL 121704Z AUTO 15011G17KT SCT009 BKN011 OVC032 07/06 A2995 RMK AO1 PRESFR SLP163
METAR CYNL 121700Z AUTO 15011G17KT SCT010 BKN014 OVC032 07/06 A2996 RMK AO1 PRESFR SLP163
SPECI CYNL 121659Z AUTO 15011G17KT SCT010 BKN014 OVC032 07/06 A2996 RMK AO1 PRESFR SLP163
SPECI CYNL 121621Z AUTO 14011G17KT FEW009 OVC033 06/06 A2997 RMK AO1 SLP168
METAR CYNL 121600Z AUTO 14010G17KT FEW012 OVC034 06/06 A2998 RMK AO1 SLP171
SPECI CYNL 121540Z AUTO 15011KT SCT012 OVC035 06/05 A2999 RMK AO1 PRESFR SLP172
SPECI CYNL 121527Z AUTO 15010G16KT BKN012 BKN037 06/05 A2999 RMK AO1 PRESFR SLP174
METAR CYNL 121500Z AUTO 14013G20KT OVC039 06/05 A2999 RMK AO1 PRESFR SLP173
METAR CYNL 121400Z AUTO 14010G19KT FEW011 OVC040 06/06 A3001 RMK AO1 PRESFR SLP180
METAR CYNL 121300Z AUTO 14010KT FEW030 OVC039 06/05 A3004 RMK AO1 SLP188
METAR CYNL 121200Z AUTO 14008KT SCT064 06/05 A3005 RMK AO1 PRESFR SLP189
METAR CYNL 121100Z AUTO 14006KT BKN072 04/04 A3008 RMK AO1 SLP198
METAR CYNL 121000Z AUTO 13004KT SCT080 BKN096 04/04 A3009 RMK AO1 SLP204
METAR CYNL 120900Z AUTO 13004KT SCT086 03/03 A3010 RMK AO1 SLP208
METAR CYNL 120800Z AUTO 15005KT CLR 02/02 A3010 RMK AO1 SLP210
METAR CYNL 120700Z AUTO 16002KT CLR 03/02 A3011 RMK AO1 SLP212
METAR CYNL 120600Z AUTO 08004KT CLR 01/01 A3011 RMK AO1 SLP214
METAR CYNL 120500Z AUTO 09002KT CLR 02/01 A3012 RMK AO1 SLP218
METAR CYNL 120400Z AUTO 00000KT CLR 03/02 A3013 RMK AO1 SLP219
METAR CYNL 120300Z AUTO 08003KT CLR 04/02 A3013 RMK AO1 SLP219
METAR CYNL 120200Z AUTO 00000KT BKN031 07/03 A3012 RMK AO1 SLP216
METAR CYNL 120100Z AUTO 06003KT CLR 09/02 A3012 RMK AO1 SLP212
METAR CYNL 120000Z AUTO 04004KT BKN030 10/02 A3012 RMK AO1 SLP213
METAR CYNL 112300Z AUTO 04004KT OVC032 09/02 A3013 RMK AO1 SLP217
METAR CYNL 112200Z AUTO 00000KT OVC030 10/02 A3013 RMK AO1 SLP217
METAR CYNL 112100Z AUTO 01007KT 340V040 BKN030 09/02 A3012 RMK AO1 SLP213
SPECI CYNL 112053Z AUTO 00005KT BKN030 09/02 A3012 RMK AO1 SLP213
SPECI CYNL 112034Z AUTO 03004KT BKN027 09/02 A3012 RMK AO1 SLP214
SPECI CYNL 112027Z AUTO 34005KT SCT027 09/03 A3013 RMK AO1 SLP215
SPECI CYNL 112008Z AUTO 03003KT BKN025 09/02 A3013 RMK AO1 SLP215
METAR CYNL 112000Z AUTO 33007KT 290V010 BKN024 09/02 A3013 RMK AO1 SLP216
SPECI CYNL 111958Z AUTO 34005KT BKN024 09/03 A3013 RMK AO1 SLP215
SPECI CYNL 111934Z AUTO 34004KT BKN025 BKN029 10/02 A3013 RMK AO1 SLP215
METAR CYNL 111900Z AUTO 33002KT BKN023 09/02 A3013 RMK AO1 SLP219
SPECI CYNL 111828Z AUTO 31007KT BKN024 09/03 A3013 RMK AO1 SLP217
METAR CYNL 111800Z AUTO 01006KT FEW023 08/02 A3013 RMK AO1 SLP217
SPECI CYNL 111750Z AUTO 35005G16KT SCT023 08/02 A3013 RMK AO1 SLP219
SPECI CYNL 111744Z AUTO 35011KT BKN022 08/02 A3013 RMK AO1 SLP218
SPECI CYNL 111742Z AUTO 34006KT SCT022 08/02 A3013 RMK AO1 SLP219
METAR CYNL 111700Z AUTO 35003KT BKN021 08/02 A3013 RMK AO1 SLP216
SPECI CYNL 111653Z AUTO 34006KT BKN020 08/02 A3013 RMK AO1 SLP215
SPECI CYNL 111643Z AUTO 35007KT SCT019 08/02 A3012 RMK AO1 SLP216
METAR CYNL 111600Z AUTO 00006KT BKN017 OVC022 07/02 A3011 RMK AO1 SLP213
METAR CYNL 111500Z AUTO 35009KT BKN016 06/01 A3011 RMK AO1 SLP212
SPECI CYNL 111445Z AUTO 34008G15KT OVC015 06/02 A3011 RMK AO1 SLP210
SPECI CYNL 111415Z AUTO 34006KT BKN014 06/02 A3010 RMK AO1 SLP209
SPECI CYNL 111410Z AUTO 33009KT SCT011 BKN015 06/02 A3010 RMK AO1 SLP208
SPECI CYNL 111409Z AUTO 34008KT SCT011 BKN014 06/02 A3010 RMK AO1 SLP208
SPECI CYNL 111407Z AUTO 33007KT SCT011 BKN015 06/02 A3010 RMK AO1 SLP208
METAR CYNL 111400Z AUTO 33009KT BKN012 OVC014 06/02 A3010 RMK AO1 SLP208
METAR CYNL 111300Z AUTO 35007KT OVC012 05/02 A3009 RMK AO1 SLP206
METAR CYNL 111200Z AUTO 35009G16KT BKN012 04/02 A3008 RMK AO1 SLP203
METAR CYNL 111100Z AUTO 33005KT BKN010 OVC014 04/02 A3008 RMK AO1 SLP199
SPECI CYNL 111052Z AUTO 34006KT BKN010 BKN012 OVC014 04/02 A3008 RMK AO1 PRESRR SLP200
METAR CYNL 111000Z AUTO 33011G16KT OVC009 04/02 A3007 RMK AO1 PRESRR SLP197
SPECI CYNL 110905Z AUTO 33010G16KT BKN009 OVC016 05/03 A3005 RMK AO1 SLP190
METAR CYNL 110900Z AUTO 33007KT BKN010 OVC016 05/03 A3005 RMK AO1 SLP189
METAR CYNL 110800Z AUTO 34011G17KT OVC010 05/03 A3003 RMK AO1 SLP182
METAR CYNL 110700Z AUTO 33006KT BKN012 BKN015 05/03 A3001 RMK AO1 PRESRR SLP176
SPECI CYNL 110643Z AUTO 33007KT BKN014 05/03 A3000 RMK AO1 SLP173
SPECI CYNL 110638Z AUTO 32007KT SCT015 05/03 A3000 RMK AO1 SLP173
SPECI CYNL 110635Z AUTO 33007KT BKN015 05/03 A3000 RMK AO1 SLP173
METAR CYNL 110600Z AUTO 34007KT FEW017 05/03 A2999 RMK AO1 SLP169
METAR CYNL 110500Z AUTO 33006KT FEW021 05/03 A2999 RMK AO1 SLP169
METAR CYNL 110400Z AUTO 31008KT CLR 06/04 A2998 RMK AO1 SLP165
METAR CYNL 110300Z AUTO 32006G16KT CLR 06/04 A2996 RMK AO1 SLP159
METAR CYNL 110200Z AUTO 32005KT FEW017 SCT026 07/05 A2995 RMK AO1 PRESRR SLP155
METAR CYNL 110100Z AUTO 31005KT FEW023 SCT037 07/04 A2993 RMK AO1 SLP146
METAR CYNL 110000Z AUTO 33007G16KT SCT027 09/04 A2991 RMK AO1 SLP139
METAR CYNL 102300Z AUTO 32014G21KT FEW024 SCT037 08/05 A2989 RMK AO1 SLP131
SPECI CYNL 102251Z AUTO 32012G25KT FEW017 SCT024 BKN032 08/05 A2989 RMK AO1 PRESRR SLP131
SPECI CYNL 102248Z AUTO 32015G25KT VV027 08/05 A2989 RMK AO1 PRESRR SLP130
SPECI CYNL 102227Z AUTO 31010G18KT SCT018 BKN037 08/06 A2988 RMK AO1 PRESRR SLP127
SPECI CYNL 102223Z AUTO 32009G20KT SCT018 BKN029 08/06 A2988 RMK AO1 PRESRR SLP127
SPECI CYNL 102212Z AUTO 32013G21KT SCT017 BKN048 08/05 A2988 RMK AO1 PRESRR SLP126
SPECI CYNL 102208Z AUTO 32010G16KT SCT017 BKN028 08/05 A2988 RMK AO1 PRESRR SLP126
SPECI CYNL 102207Z AUTO 32009G22KT SCT017 BKN022 08/05 A2988 RMK AO1 PRESRR SLP127
SPECI CYNL 102206Z AUTO 32009G22KT SCT017 BKN027 08/05 A2988 RMK AO1 PRESRR SLP127
METAR CYNL 102200Z AUTO 33010G22KT BKN016 BKN025 07/06 A2988 RMK AO1 PRESRR SLP127
SPECI CYNL 102148Z AUTO 33011G18KT BKN016 08/06 A2987 RMK AO1 SLP123
SPECI CYNL 102147Z AUTO 33011G18KT SCT016 BKN028 08/06 A2987 RMK AO1 SLP123
SPECI CYNL 102133Z AUTO 31008G23KT BKN015 08/07 A2986 RMK AO1 SLP120
SPECI CYNL 102132Z AUTO 31011G23KT BKN014 08/06 A2986 RMK AO1 SLP120
METAR CYNL 102100Z AUTO 31010G19KT FEW008 SCT012 BKN019 08/07 A2985 RMK AO1 SLP116
SPECI CYNL 102053Z AUTO 32012G21KT FEW008 SCT012 BKN018 08/06 A2985 RMK AO1 PRESRR SLP115
SPECI CYNL 102041Z AUTO 31010G20KT FEW009 BKN012 BKN018 08/07 A2985 RMK AO1 PRESRR SLP114
SPECI CYNL 102039Z AUTO 32011G20KT BKN012 BKN019 08/06 A2984 RMK AO1 PRESRR SLP114
SPECI CYNL 102031Z AUTO 31012G22KT FEW009 SCT013 BKN019 08/06 A2984 RMK AO1 PRESRR SLP114
SPECI CYNL 102022Z AUTO 31009G19KT FEW009 BKN013 BKN021 08/07 A2984 RMK AO1 PRESRR SLP113
SPECI CYNL 102011Z AUTO 31014G21KT SCT014 BKN017 BKN026 08/06 A2984 RMK AO1 PRESRR SLP111
SPECI CYNL 102008Z AUTO 31011G20KT FEW010 BKN014 08/06 A2984 RMK AO1 PRESRR SLP110
SPECI CYNL 102007Z AUTO 32011G20KT FEW011 BKN015 08/06 A2984 RMK AO1 PRESRR SLP110
SPECI CYNL 102006Z AUTO 32012G20KT BKN014 08/06 A2983 RMK AO1 PRESRR SLP110
SPECI CYNL 102003Z AUTO 33013G20KT FEW010 SCT014 BKN021 08/05 A2983 RMK AO1 PRESRR SLP109
SPECI CYNL 102002Z AUTO 32013G20KT FEW010 BKN014 08/05 A2983 RMK AO1 PRESRR SLP109
METAR CYNL 102000Z AUTO 32011G19KT SCT013 BKN016 BKN026 08/06 A2983 RMK AO1 PRESRR SLP109
SPECI CYNL 101956Z AUTO 32012G20KT SCT013 BKN017 BKN025 08/06 A2983 RMK AO1 PRESRR SLP109
SPECI CYNL 101953Z AUTO 32012G20KT FEW010 BKN013 BKN024 08/06 A2983 RMK AO1 PRESRR SLP108
SPECI CYNL 101952Z AUTO 32011G23KT FEW010 SCT014 BKN017 08/06 A2983 RMK AO1 PRESRR SLP108
SPECI CYNL 101945Z AUTO 31013G23KT BKN013 BKN028 08/06 A2982 RMK AO1 PRESRR SLP107
SPECI CYNL 101914Z AUTO 31011G21KT SCT013 BKN017 BKN210 08/05 A2981 RMK AO1 PRESRR SLP102
SPECI CYNL 101909Z AUTO 32013G21KT BKN014 08/06 A2981 RMK AO1 PRESRR SLP101
SPECI CYNL 101907Z AUTO 31012G21KT SCT013 BKN016 08/06 A2981 RMK AO1 PRESRR SLP101
SPECI CYNL 101906Z AUTO 32013G20KT BKN014 08/06 A2981 RMK AO1 PRESRR SLP101
SPECI CYNL 101902Z AUTO 31012G22KT BKN015 BKN022 08/06 A2981 RMK AO1 PRESRR SLP100
SPECI CYNL 101901Z AUTO 31013G22KT BKN014 BKN021 08/06 A2980 RMK AO1 PRESRR SLP099
METAR CYNL 101900Z AUTO 31013G22KT BKN015 BKN022 08/06 A2980 RMK AO1 PRESRR SLP099
SPECI CYNL 101857Z AUTO 32011G22KT BKN013 BKN022 08/06 A2980 RMK AO1 PRESRR SLP098
SPECI CYNL 101829Z AUTO 32014G25KT SCT012 BKN016 08/06 A2979 RMK AO1 PRESRR SLP093
SPECI CYNL 101828Z AUTO 33014G25KT BKN013 08/06 A2978 RMK AO1 PRESRR SLP093
SPECI CYNL 101825Z AUTO 32014G25KT SCT011 BKN015 08/06 A2978 RMK AO1 PRESRR SLP092
SPECI CYNL 101816Z AUTO 32011G19KT BKN012 BKN016 08/06 A2978 RMK AO1 PRESRR SLP091
SPECI CYNL 101809Z AUTO 32010G20KT SCT011 BKN015 08/06 A2978 RMK AO1 PRESRR SLP089
SPECI CYNL 101808Z AUTO 32010G20KT BKN012 BKN016 08/06 A2978 RMK AO1 PRESRR SLP089
SPECI CYNL 101807Z AUTO 31011G20KT SCT010 BKN015 08/06 A2978 RMK AO1 PRESRR SLP089
SPECI CYNL 101806Z AUTO 32009G20KT FEW010 BKN013 BKN017 08/06 A2977 RMK AO1 PRESRR SLP089
SPECI CYNL 101803Z AUTO 32012G20KT SCT010 BKN015 OVC022 08/06 A2977 RMK AO1 PRESRR SLP090
SPECI CYNL 101801Z AUTO 33010G19KT SCT010 BKN014 OVC017 08/06 A2978 RMK AO1 PRESRR SLP090
METAR CYNL 101800Z AUTO 33011G23KT SCT010 BKN015 OVC022 08/06 A2977 RMK AO1 PRESRR SLP089
SPECI CYNL 101755Z AUTO 33011G24KT SCT010 BKN014 08/06 A2977 RMK AO1 PRESRR SLP088
SPECI CYNL 101754Z AUTO 33014G24KT SCT011 BKN015 08/06 A2977 RMK AO1 PRESRR SLP088
SPECI CYNL 101752Z AUTO 32014G24KT FEW010 BKN014 BKN018 08/06 A2977 RMK AO1 PRESRR SLP087
SPECI CYNL 101748Z AUTO 32014G24KT SCT010 BKN016 07/06 A2976 RMK AO1 PRESRR SLP086
SPECI CYNL 101746Z AUTO 32012G22KT SCT010 BKN012 BKN016 07/06 A2977 RMK AO1 PRESRR SLP086
SPECI CYNL 101743Z AUTO 31015G24KT SCT010 BKN016 08/06 A2976 RMK AO1 PRESRR SLP086
SPECI CYNL 101741Z AUTO 32011G24KT SCT010 BKN012 08/06 A2976 RMK AO1 PRESRR SLP085
SPECI CYNL 101740Z AUTO 32011G24KT SCT010 BKN015 08/06 A2976 RMK AO1 PRESRR SLP085
SPECI CYNL 101739Z AUTO 32010G24KT SCT010 BKN012 08/06 A2976 RMK AO1 PRESRR SLP085
SPECI CYNL 101738Z AUTO 32010G24KT SCT011 BKN015 08/06 A2976 RMK AO1 PRESRR SLP084
SPECI CYNL 101737Z AUTO 32010G24KT BKN013 08/06 A2976 RMK AO1 PRESRR SLP084
SPECI CYNL 101735Z AUTO 32010G24KT SCT011 BKN015 08/06 A2976 RMK AO1 PRESRR SLP084
SPECI CYNL 101733Z AUTO 31013G24KT BKN013 08/06 A2976 RMK AO1 PRESRR SLP084
SPECI CYNL 101730Z AUTO 32013G25KT SCT014 BKN019 08/05 A2976 RMK AO1 PRESRR SLP083
SPECI CYNL 101728Z AUTO 34015G25KT SCT013 BKN160 08/05 A2976 RMK AO1 PRESRR SLP084
SPECI CYNL 101723Z AUTO 32014G25KT SCT013 BKN016 08/05 A2976 RMK AO1 PRESRR SLP084
SPECI CYNL 101718Z AUTO 33013G28KT BKN013 07/06 A2976 RMK AO1 PRESRR SLP083
SPECI CYNL 101710Z AUTO 33011G27KT FEW011 SCT014 BKN018 07/06 A2975 RMK AO1 PRESRR SLP081
METAR CYNL 101700Z AUTO 33013G23KT BKN012 07/06 A2974 RMK AO1 PRESRR SLP078
SPECI CYNL 101659Z AUTO 32012G22KT BKN012 07/06 A2974 RMK AO1 PRESRR SLP078
SPECI CYNL 101646Z AUTO 32013G23KT FEW010 SCT014 BKN019 07/06 A2974 RMK AO1 PRESRR SLP077
SPECI CYNL 101645Z AUTO 32013G23KT SCT011 BKN014 07/06 A2974 RMK AO1 PRESRR SLP077
SPECI CYNL 101641Z AUTO 32012G25KT SCT013 BKN024 07/06 A2974 RMK AO1 PRESRR SLP076
SPECI CYNL 101627Z AUTO 33011G25KT SCT014 08/06 A2973 RMK AO1 PRESRR SLP074
SPECI CYNL 101624Z AUTO 33011G25KT SCT013 BKN019 07/06 A2973 RMK AO1 PRESRR SLP074
SPECI CYNL 101620Z AUTO 32013G25KT BKN013 07/06 A2972 RMK AO1 PRESRR SLP073
SPECI CYNL 101616Z AUTO 32013G25KT SCT013 BKN017 07/06 A2972 RMK AO1 PRESRR SLP072
SPECI CYNL 101614Z AUTO 33016G25KT BKN013 07/06 A2972 RMK AO1 PRESRR SLP072
SPECI CYNL 101610Z AUTO 33013G24KT SCT013 BKN018 07/06 A2972 RMK AO1 PRESRR SLP071
SPECI CYNL 101606Z AUTO 32011G20KT BKN012 07/06 A2972 RMK AO1 PRESRR SLP070
SPECI CYNL 101605Z AUTO 32013G20KT SCT012 BKN015 07/06 A2972 RMK AO1 PRESRR SLP070
SPECI CYNL 101602Z AUTO 31009G20KT BKN012 07/06 A2972 RMK AO1 PRESRR SLP069
METAR CYNL 101600Z AUTO 32011G21KT SCT012 BKN016 07/06 A2971 RMK AO1 PRESRR SLP068
SPECI CYNL 101559Z AUTO 32011G21KT BKN012 07/06 A2971 RMK AO1 PRESRR SLP068
SPECI CYNL 101555Z AUTO 33013G22KT SCT013 BKN018 07/06 A2971 RMK AO1 PRESRR SLP068
SPECI CYNL 101554Z AUTO 32011G22KT BKN013 BKN023 07/06 A2971 RMK AO1 PRESRR SLP068
SPECI CYNL 101540Z AUTO 32013G25KT FEW011 OVC017 07/06 A2970 RMK AO1 PRESRR SLP066
SPECI CYNL 101539Z AUTO 32014G25KT BKN014 OVC020 07/06 A2970 RMK AO1 PRESRR SLP066
SPECI CYNL 101534Z AUTO 32013G24KT SCT012 OVC018 07/06 A2970 RMK AO1 PRESRR SLP065
SPECI CYNL 101533Z AUTO 32012G24KT BKN014 OVC020 07/06 A2970 RMK AO1 PRESRR SLP064
SPECI CYNL 101532Z AUTO 32012G24KT FEW010 BKN015 BKN019 07/06 A2970 RMK AO1 PRESRR SLP064
SPECI CYNL 101531Z AUTO 32013G24KT FEW010 BKN014 BKN018 07/06 A2970 RMK AO1 PRESRR SLP064
SPECI CYNL 101523Z AUTO 31012G25KT FEW010 BKN015 OVC020 07/07 A2969 RMK AO1 PRESRR SLP061
SPECI CYNL 101510Z AUTO 31017G28KT FEW010 BKN014 BKN020 07/06 A2968 RMK AO1 PRESRR SLP057
SPECI CYNL 101509Z AUTO 32018G28KT SCT010 BKN015 BKN020 07/06 A2968 RMK AO1 PRESRR SLP057
SPECI CYNL 101504Z AUTO 32015G24KT FEW009 BKN013 BKN017 07/07 A2968 RMK AO1 PRESRR SLP056
METAR CYNL 101500Z AUTO 31014G24KT FEW009 SCT014 BKN018 08/07 A2967 RMK AO1 PRESRR SLP055
SPECI CYNL 101457Z AUTO 31014G25KT FEW009 SCT012 BKN018 08/07 A2967 RMK AO1 PRESRR SLP053
SPECI CYNL 101437Z AUTO 32016G24KT SCT008 OVC014 08/07 A2966 RMK AO1 PRESRR SLP050
SPECI CYNL 101435Z AUTO 32014G24KT SCT008 OVC015 08/07 A2966 RMK AO1 PRESRR SLP049
SPECI CYNL 101432Z AUTO 32015G29KT SCT008 OVC014 08/07 A2966 RMK AO1 PRESRR SLP049
SPECI CYNL 101431Z AUTO 32013G29KT SCT008 OVC015 08/07 A2966 RMK AO1 PRESRR SLP049
SPECI CYNL 101424Z AUTO 32018G29KT SCT009 BKN013 OVC015 08/07 A2966 RMK AO1 PRESRR SLP047
SPECI CYNL 101423Z AUTO 32015G29KT BKN009 OVC015 08/07 A2965 RMK AO1 PRESRR SLP047
SPECI CYNL 101407Z AUTO 31016G28KT SCT008 OVC013 08/08 A2964 RMK AO1 PRESRR SLP043
SPECI CYNL 101406Z AUTO 31017G28KT BKN008 BKN013 OVC016 08/08 A2964 RMK AO1 PRESRR SLP042
SPECI CYNL 101402Z AUTO 31010G24KT SCT008 OVC013 08/08 A2964 RMK AO1 PRESRR SLP041
SPECI CYNL 101401Z AUTO 31010G24KT BKN008 BKN013 OVC016 08/08 A2964 RMK AO1 PRESRR SLP041
METAR CYNL 101400Z AUTO 31010G24KT SCT008 BKN010 OVC013 08/08 A2964 RMK AO1 PRESRR SLP041
SPECI CYNL 101359Z AUTO 31010G24KT FEW007 BKN009 OVC013 08/08 A2964 RMK AO1 PRESRR SLP041
SPECI CYNL 101357Z AUTO 31011G24KT SCT008 BKN010 OVC013 08/08 A2964 RMK AO1 PRESRR SLP041
SPECI CYNL 101353Z AUTO 31012G21KT FEW007 BKN009 OVC013 08/08 A2964 RMK AO1 PRESRR SLP040
SPECI CYNL 101349Z AUTO 31012G21KT FEW007 SCT009 BKN012 08/08 A2964 RMK AO1 PRESRR SLP040
SPECI CYNL 101348Z AUTO 31013G21KT FEW007 BKN009 BKN012 08/08 A2964 RMK AO1 PRESRR SLP040
SPECI CYNL 101347Z AUTO 31013G20KT FEW007 SCT009 OVC013 08/08 A2964 RMK AO1 PRESRR SLP039
SPECI CYNL 101346Z AUTO 31014G22KT FEW007 BKN009 OVC013 08/08 A2963 RMK AO1 PRESRR SLP039
SPECI CYNL 101305Z AUTO 30011G18KT FEW007 SCT010 OVC014 08/08 A2962 RMK AO1 PRESRR SLP034
SPECI CYNL 101304Z AUTO 31010G16KT VV016 08/08 A2962 RMK AO1 PRESRR SLP033
METAR CYNL 101300Z AUTO 31009G23KT FEW007 OVC013 08/08 A2962 RMK AO1 PRESRR SLP033
SPECI CYNL 101224Z AUTO 31009G22KT FEW007 SCT010 BKN013 09/09 A2961 RMK AO1 SLP029
SPECI CYNL 101221Z AUTO 31009G22KT VV014 09/09 A2960 RMK AO1 SLP028
SPECI CYNL 101216Z AUTO 31012G22KT VV017 09/09 A2960 RMK AO1 SLP027
METAR CYNL 101200Z AUTO 29010G19KT BKN006 OVC010 09/09 A2959 RMK AO1 SLP023
SPECI CYNL 101112Z AUTO 27014G20KT BKN009 BKN016 10/09 A2958 RMK AO1 SLP019
SPECI CYNL 101103Z AUTO 28012G20KT SCT009 BKN014 BKN017 10/09 A2958 RMK AO1 SLP018
METAR CYNL 101100Z AUTO 27011G21KT SCT009 BKN015 10/09 A2958 RMK AO1 SLP018
SPECI CYNL 101055Z AUTO 27012G21KT SCT009 BKN015 10/09 A2958 RMK AO1 SLP018
METAR CYNL 101000Z AUTO 26010G17KT FEW008 BKN012 BKN015 10/10 A2957 RMK AO1 SLP014
SPECI CYNL 100957Z AUTO 26010G17KT FEW008 BKN012 BKN020 11/10 A2957 RMK AO1 SLP013
SPECI CYNL 100955Z AUTO 26009G17KT FEW008 SCT012 BKN015 11/11 A2957 RMK AO1 SLP013
SPECI CYNL 100952Z AUTO 26010G17KT SCT010 BKN015 BKN020 11/10 A2957 RMK AO1 SLP013
SPECI CYNL 100950Z AUTO 26010G17KT SCT010 BKN014 BKN019 11/10 A2957 RMK AO1 SLP013
SPECI CYNL 100944Z AUTO 27010G17KT VV015 11/10 A2957 RMK AO1 SLP013
SPECI CYNL 100941Z AUTO 27011G17KT FEW009 SCT011 BKN014 11/10 A2957 RMK AO1 SLP013
SPECI CYNL 100938Z AUTO 26011G17KT FEW009 SCT011 BKN015 11/10 A2957 RMK AO1 SLP013
SPECI CYNL 100927Z AUTO 26010G17KT BKN012 BKN017 11/10 A2957 RMK AO1 SLP013
SPECI CYNL 100916Z AUTO 27010G20KT FEW009 SCT011 BKN017 11/10 A2957 RMK AO1 SLP013
METAR CYNL 100900Z AUTO 26010G17KT SCT009 BKN012 BKN019 11/10 A2957 RMK AO1 SLP012
SPECI CYNL 100852Z AUTO 26007G16KT SCT009 BKN014 BKN027 11/11 A2957 RMK AO1 SLP012
SPECI CYNL 100850Z AUTO 27007G16KT SCT011 BKN014 BKN026 11/11 A2957 RMK AO1 SLP012
SPECI CYNL 100849Z AUTO 27007G16KT SCT011 BKN015 BKN026 11/11 A2957 RMK AO1 SLP012
SPECI CYNL 100847Z AUTO 26008G16KT SCT011 BKN014 BKN026 11/11 A2957 RMK AO1 SLP012
SPECI CYNL 100826Z AUTO 26011G17KT FEW010 SCT015 BKN028 11/10 A2957 RMK AO1 SLP012
SPECI CYNL 100812Z AUTO 25007KT FEW008 BKN015 BKN029 11/11 A2957 RMK AO1 SLP012
SPECI CYNL 100811Z AUTO 25006KT FEW008 SCT011 BKN014 11/11 A2957 RMK AO1 SLP013
SPECI CYNL 100809Z AUTO 26007KT FEW008 SCT014 BKN023 11/11 A2958 RMK AO1 SLP013
SPECI CYNL 100807Z AUTO 26010KT FEW008 SCT010 BKN028 11/11 A2958 RMK AO1 SLP013
SPECI CYNL 100801Z AUTO 26009KT FEW008 SCT010 BKN015 11/11 A2957 RMK AO1 SLP013
METAR CYNL 100800Z AUTO 26010KT FEW008 BKN011 BKN015 11/11 A2957 RMK AO1 SLP013
SPECI CYNL 100756Z AUTO 26008KT SCT008 BKN012 BKN015 11/11 A2958 RMK AO1 SLP013
SPECI CYNL 100754Z AUTO 26007KT FEW009 SCT012 BKN015 11/11 A2958 RMK AO1 SLP013
SPECI CYNL 100752Z AUTO 26008KT FEW008 SCT010 BKN014 11/11 A2958 RMK AO1 SLP013
SPECI CYNL 100751Z AUTO 26009KT FEW008 SCT012 BKN015 11/11 A2958 RMK AO1 SLP013
SPECI CYNL 100750Z AUTO 26009KT FEW008 SCT010 BKN014 11/11 A2958 RMK AO1 SLP013
SPECI CYNL 100749Z AUTO 26007KT FEW008 SCT012 BKN015 11/11 A2958 RMK AO1 SLP013
SPECI CYNL 100747Z AUTO 26007KT FEW008 SCT010 BKN014 11/11 A2958 RMK AO1 SLP014
SPECI CYNL 100738Z AUTO 27008KT FEW008 SCT013 BKN016 11/11 A2958 RMK AO1 SLP015
SPECI CYNL 100736Z AUTO 26007KT FEW010 SCT013 BKN015 11/11 A2958 RMK AO1 SLP014
SPECI CYNL 100735Z AUTO 26007KT VV014 11/11 A2958 RMK AO1 SLP014
SPECI CYNL 100725Z AUTO 27008KT FEW008 SCT015 BKN023 12/11 A2958 RMK AO1 SLP015
SPECI CYNL 100724Z AUTO 27007KT FEW010 SCT015 BKN024 12/11 A2958 RMK AO1 SLP015
SPECI CYNL 100723Z AUTO 27007KT FEW011 SCT015 BKN025 12/11 A2958 RMK AO1 SLP015
SPECI CYNL 100716Z AUTO 27007KT FEW011 SCT019 BKN024 12/11 A2959 RMK AO1 SLP015
METAR CYNL 100700Z AUTO 27007G16KT SCT009 BKN026 12/11 A2959 RMK AO1 SLP016
SPECI CYNL 100659Z AUTO 27008G16KT SCT009 BKN025 12/11 A2959 RMK AO1 SLP015
SPECI CYNL 100656Z AUTO 27009G16KT SCT009 BKN024 12/11 A2959 RMK AO1 SLP015
SPECI CYNL 100655Z AUTO 27009G20KT BKN009 BKN024 12/11 A2959 RMK AO1 SLP015
SPECI CYNL 100651Z AUTO 27009G20KT SCT009 BKN011 BKN023 12/11 A2959 RMK AO1 SLP015
SPECI CYNL 100649Z AUTO 27010G20KT BKN009 BKN014 12/11 A2959 RMK AO1 SLP015
SPECI CYNL 100648Z AUTO 26010G20KT SCT009 BKN011 BKN014 12/11 A2959 RMK AO1 SLP015
SPECI CYNL 100647Z AUTO 26010G20KT BKN009 BKN012 OVC023 12/11 A2959 RMK AO1 SLP014
SPECI CYNL 100646Z AUTO 26012G20KT SCT009 BKN011 OVC015 12/11 A2958 RMK AO1 SLP014
SPECI CYNL 100635Z AUTO 26008G17KT BKN009 OVC015 12/12 A2959 RMK AO1 SLP014
SPECI CYNL 100622Z AUTO 26006KT SCT009 BKN012 OVC016 12/12 A2959 RMK AO1 SLP015
SPECI CYNL 100621Z AUTO 25008KT BKN009 BKN012 OVC016 12/12 A2959 RMK AO1 SLP015
SPECI CYNL 100609Z AUTO 25008G17KT FEW008 BKN011 BKN018 12/12 A2959 RMK AO1 SLP015
METAR CYNL 100600Z AUTO 26006KT BKN011 BKN016 12/12 A2959 RMK AO1 SLP016
SPECI CYNL 100548Z AUTO 25008KT SCT009 BKN011 12/12 A2959 RMK AO1 SLP017
SPECI CYNL 100545Z AUTO 26007KT BKN010 BKN015 12/12 A2959 RMK AO1 SLP017
SPECI CYNL 100544Z AUTO 26007KT BKN009 BKN015 12/12 A2959 RMK AO1 SLP017
SPECI CYNL 100542Z AUTO 26007KT SCT009 BKN011 BKN015 12/12 A2959 RMK AO1 SLP017
SPECI CYNL 100516Z AUTO 26007G15KT BKN009 BKN028 12/12 A2960 RMK AO1 SLP020
SPECI CYNL 100515Z AUTO 26007G15KT SCT008 BKN010 BKN028 12/12 A2960 RMK AO1 SLP019
METAR CYNL 100500Z AUTO 26008KT BKN009 12/12 A2960 RMK AO1 SLP021
SPECI CYNL 100401Z AUTO 28007KT BKN008 BKN023 OVC031 12/12 A2960 RMK AO1 SLP024
METAR CYNL 100400Z AUTO 28007KT SCT008 BKN011 BKN023 12/12 A2960 RMK AO1 SLP024
SPECI CYNL 100344Z AUTO 27006G15KT SCT007 BKN012 BKN023 12/12 A2960 RMK AO1 SLP025
SPECI CYNL 100341Z AUTO 27008G17KT SCT007 BKN017 BKN023 12/12 A2961 RMK AO1 SLP026
SPECI CYNL 100337Z AUTO 27007G19KT VV021 12/12 A2961 RMK AO1 SLP026
SPECI CYNL 100330Z AUTO 28011G19KT SCT007 BKN012 OVC018 12/12 A2960 RMK AO1 SLP025
SPECI CYNL 100328Z AUTO 28011G19KT FEW006 BKN008 OVC018 12/12 A2960 RMK AO1 SLP024
SPECI CYNL 100327Z AUTO 28012G19KT VV014 12/12 A2960 RMK AO1 SLP024
SPECI CYNL 100322Z AUTO 28009G18KT BKN007 OVC020 13/13 A2960 RMK AO1 SLP023
SPECI CYNL 100321Z AUTO 28010G18KT SCT007 BKN010 OVC019 13/13 A2960 RMK AO1 SLP023
SPECI CYNL 100318Z AUTO 29010G18KT SCT007 BKN009 OVC018 13/12 A2960 RMK AO1 SLP023
SPECI CYNL 100317Z AUTO 29011G18KT SCT007 BKN010 OVC020 13/12 A2960 RMK AO1 SLP023
SPECI CYNL 100308Z AUTO 28010G17KT BKN009 OVC020 13/12 A2959 RMK AO1 SLP021
SPECI CYNL 100307Z AUTO 27011G17KT SCT009 BKN014 OVC020 13/12 A2959 RMK AO1 SLP020
METAR CYNL 100300Z AUTO 27008G17KT FEW009 SCT014 OVC020 14/12 A2959 RMK AO1 SLP020
SPECI CYNL 100247Z AUTO 26006KT FEW009 SCT011 BKN017 14/13 A2959 RMK AO1 SLP019
SPECI CYNL 100231Z AUTO 25006KT SCT017 BKN022 14/12 A2959 RMK AO1 SLP018
METAR CYNL 100200Z AUTO 23006KT FEW043 SCT082 14/12 A2959 RMK AO1 SLP019
METAR CYNL 100100Z AUTO 20004KT CLR 14/12 A2960 RMK AO1 PRESFR SLP024
METAR CYNL 100000Z AUTO 20007KT CLR 14/11 A2962 RMK AO1 SLP031
METAR CYNL 092300Z AUTO 19007KT CLR 14/11 A2963 RMK AO1 SLP033
METAR CYNL 092200Z AUTO 17009KT FEW084 15/10 A2963 RMK AO1 SLP031
METAR CYNL 092100Z AUTO 16006KT CLR 16/10 A2964 RMK AO1 PRESFR SLP035
METAR CYNL 092000Z AUTO 17008KT FEW084 16/10 A2967 RMK AO1 SLP043
METAR CYNL 091900Z AUTO 20007KT FEW098 17/10 A2968 RMK AO1 SLP048
METAR CYNL 091800Z AUTO 19006KT CLR 16/10 A2969 RMK AO1 SLP054
METAR CYNL 091700Z AUTO 19007KT FEW072 14/09 A2971 RMK AO1 SLP062
METAR CYNL 091600Z AUTO 19006KT BKN068 13/09 A2973 RMK AO1 PRESFR SLP070
METAR CYNL 091500Z AUTO 20008KT SCT082 13/09 A2975 RMK AO1 SLP077
METAR CYNL 091400Z AUTO 15008KT SCT092 12/09 A2976 RMK AO1 PRESFR SLP081
METAR CYNL 091300Z AUTO 15006KT SCT110 11/09 A2978 RMK AO1 PRESFR SLP089
METAR CYNL 091200Z AUTO 14004KT CLR 11/09 A2982 RMK AO1 PRESFR SLP097
METAR CYNL 091100Z AUTO 13005KT FEW070 11/09 A2984 RMK AO1 PRESFR SLP104
METAR CYNL 091000Z AUTO 15005KT SCT120 11/09 A2987 RMK AO1 SLP113
METAR CYNL 090900Z AUTO 13004KT BKN110 11/09 A2989 RMK AO1 PRESFR SLP118
METAR CYNL 090800Z AUTO 13006KT FEW052 BKN096 11/09 A2992 RMK AO1 SLP129
METAR CYNL 090700Z AUTO 13004KT FEW058 SCT130 11/09 A2993 RMK AO1 SLP134
METAR CYNL 090600Z AUTO 13004KT SCT120 BKN190 11/09 A2994 RMK AO1 SLP139
METAR CYNL 090500Z AUTO 13005KT OVC120 11/09 A2995 RMK AO1 SLP143
METAR CYNL 090400Z AUTO 11004KT BKN130 10/09 A2995 RMK AO1 SLP146
METAR CYNL 090300Z AUTO 00000KT CLR 10/09 A2997 RMK AO1 SLP154
METAR CYNL 090200Z AUTO 09003KT CLR 12/09 A2998 RMK AO1 SLP157
METAR CYNL 090100Z AUTO 09005KT CLR 15/09 A2999 RMK AO1 SLP158
METAR CYNL 090000Z AUTO 00000KT CLR 16/08 A3001 RMK AO1 SLP162
METAR CYNL 082300Z AUTO 01003KT FEW045 17/07 A3001 RMK AO1 SLP162
METAR CYNL 082200Z AUTO 31003KT FEW044 16/07 A3001 RMK AO1 SLP163
METAR CYNL 082100Z AUTO 29003KT BKN042 16/07 A3003 RMK AO1 SLP169
METAR CYNL 082000Z AUTO 31004KT OVC042 15/07 A3005 RMK AO1 SLP177
METAR CYNL 081900Z AUTO 29004KT BKN036 15/07 A3005 RMK AO1 SLP178
METAR CYNL 081800Z AUTO 32003KT FEW021 BKN036 15/08 A3005 RMK AO1 SLP178
SPECI CYNL 081707Z AUTO 29003KT SCT012 OVC037 13/09 A3005 RMK AO1 SLP179
METAR CYNL 081700Z AUTO 29004KT BKN012 OVC038 13/10 A3006 RMK AO1 SLP179
SPECI CYNL 081653Z AUTO 28003KT BKN012 BKN038 13/10 A3006 RMK AO1 SLP179
SPECI CYNL 081650Z AUTO 27003KT SCT012 BKN017 BKN039 13/10 A3006 RMK AO1 SLP179
SPECI CYNL 081647Z AUTO 23004KT 200V270 BKN011 BKN039 13/10 A3006 RMK AO1 SLP180
SPECI CYNL 081643Z AUTO 23003KT SCT012 BKN018 BKN039 13/10 A3006 RMK AO1 SLP180
SPECI CYNL 081627Z AUTO 25003KT FEW009 SCT014 BKN039 13/10 A3006 RMK AO1 SLP181
SPECI CYNL 081623Z AUTO 27002KT SCT009 BKN018 BKN039 12/10 A3006 RMK AO1 SLP182
SPECI CYNL 081613Z AUTO 28002KT SCT009 BKN014 OVC018 12/10 A3007 RMK AO1 SLP183
SPECI CYNL 081612Z AUTO 28003KT SCT010 BKN014 OVC018 12/10 A3007 RMK AO1 SLP183
SPECI CYNL 081609Z AUTO 27003KT SCT010 OVC017 12/10 A3007 RMK AO1 SLP184
SPECI CYNL 081608Z AUTO 26003KT SCT010 BKN014 OVC018 12/10 A3007 RMK AO1 SLP183
SPECI CYNL 081606Z AUTO 28003KT BKN009 OVC018 12/10 A3007 RMK AO1 SLP183
SPECI CYNL 081605Z AUTO 28002KT SCT009 BKN011 OVC018 12/10 A3007 RMK AO1 SLP184
METAR CYNL 081600Z AUTO 30002KT BKN009 OVC020 12/10 A3007 RMK AO1 SLP183
SPECI CYNL 081552Z AUTO 28003KT BKN009 OVC020 12/10 A3007 RMK AO1 SLP183
SPECI CYNL 081549Z AUTO 00000KT FEW007 BKN010 OVC020 12/10 A3007 RMK AO1 SLP183
SPECI CYNL 081548Z AUTO 00000KT FEW007 BKN009 OVC020 12/10 A3007 RMK AO1 SLP183
SPECI CYNL 081547Z AUTO 00000KT FEW007 SCT009 BKN010 12/10 A3007 RMK AO1 SLP183
METAR CYNL 081500Z AUTO 31004KT BKN005 OVC039 11/11 A3007 RMK AO1 SLP185
SPECI CYNL 081452Z AUTO 31002KT SCT003 BKN005 OVC039 11/11 A3007 RMK AO1 SLP183
SPECI CYNL 081451Z AUTO 29002KT BKN004 OVC039 11/11 A3007 RMK AO1 SLP183
SPECI CYNL 081450Z AUTO 00000KT SCT003 BKN005 OVC039 11/11 A3006 RMK AO1 SLP183
SPECI CYNL 081448Z AUTO 31003KT BKN004 OVC038 11/11 A3006 RMK AO1 SLP183
SPECI CYNL 081447Z AUTO 31003KT SCT003 BKN005 OVC007 11/11 A3006 RMK AO1 SLP183
METAR CYNL 081300Z AUTO 29004KT OVC046 10/10 A3005 RMK AO1 SLP180
METAR CYNL 081200Z AUTO 31004KT SCT049 10/10 A3004 RMK AO1 SLP177
METAR CYNL 081100Z AUTO 29004KT BKN049 10/10 A3004 RMK AO1 SLP176
METAR CYNL 081000Z AUTO 30004KT BKN050 10/10 A3003 RMK AO1 SLP172
METAR CYNL 080900Z AUTO 29004KT CLR 10/09 A3003 RMK AO1 SLP171
METAR CYNL 080800Z AUTO 29004KT CLR 10/08 A3001 RMK AO1 SLP164
METAR CYNL 080700Z AUTO 31005KT CLR 11/08 A3000 RMK AO1 SLP161
METAR CYNL 080600Z AUTO 29006KT FEW047 12/09 A2999 RMK AO1 SLP155
METAR CYNL 080500Z AUTO 30007KT OVC049 13/09 A2999 RMK AO1 SLP151
METAR CYNL 080400Z AUTO 30008KT BKN044 13/08 A2997 RMK AO1 SLP148
METAR CYNL 080300Z AUTO 29008KT BKN046 14/08 A2997 RMK AO1 SLP147
METAR CYNL 080200Z AUTO 30006KT BKN041 14/08 A2995 RMK AO1 SLP140
METAR CYNL 080100Z AUTO 30010G16KT OVC040 14/08 A2993 RMK AO1 SLP134
METAR CYNL 080000Z AUTO 30007G16KT BKN033 BKN041 14/08 A2991 RMK AO1 PRESRR SLP128
SPECI CYNL 072315Z AUTO 31009G16KT SCT027 BKN036 15/09 A2989 RMK AO1 SLP122
SPECI CYNL 072312Z AUTO 30010G16KT BKN028 BKN036 15/09 A2989 RMK AO1 SLP121
SPECI CYNL 072311Z AUTO 30010G16KT BKN030 14/09 A2989 RMK AO1 SLP121
METAR CYNL 072300Z AUTO 31010G22KT BKN026 14/09 A2989 RMK AO1 SLP120
SPECI CYNL 072255Z AUTO 30011G22KT BKN026 14/09 A2989 RMK AO1 SLP120
SPECI CYNL 072223Z AUTO 30010G22KT SCT029 BKN036 15/09 A2988 RMK AO1 SLP117
SPECI CYNL 072210Z AUTO 31009G22KT BKN029 15/09 A2988 RMK AO1 SLP116
SPECI CYNL 072206Z AUTO 30009G22KT BKN030 15/09 A2988 RMK AO1 SLP116
SPECI CYNL 072205Z AUTO 31009G22KT BKN029 15/09 A2988 RMK AO1 SLP115
METAR CYNL 072200Z AUTO 30015G22KT BKN030 15/08 A2987 RMK AO1 SLP115
METAR CYNL 072100Z AUTO 30007G18KT BKN031 15/09 A2986 RMK AO1 SLP108
METAR CYNL 072000Z AUTO 30010G18KT FEW022 BKN037 14/08 A2984 RMK AO1 PRESRR SLP104
SPECI CYNL 071949Z AUTO 30011G19KT SCT024 BKN036 14/09 A2984 RMK AO1 PRESRR SLP104
SPECI CYNL 071948Z AUTO 30011G19KT BKN023 14/09 A2984 RMK AO1 PRESRR SLP104
SPECI CYNL 071946Z AUTO 31010G19KT SCT023 BKN034 14/09 A2984 RMK AO1 PRESRR SLP104
SPECI CYNL 071943Z AUTO 28011G20KT BKN023 14/09 A2984 RMK AO1 PRESRR SLP103
METAR CYNL 071900Z AUTO 29015G23KT BKN042 15/08 A2982 RMK AO1 PRESRR SLP095
METAR CYNL 071800Z AUTO 29010G21KT FEW028 SCT044 16/09 A2979 RMK AO1 SLP086
METAR CYNL 071700Z AUTO 31010G19KT FEW020 SCT038 15/10 A2978 RMK AO1 SLP085
SPECI CYNL 071632Z AUTO 31012G21KT SCT026 OVC036 14/10 A2978 RMK AO1 PRESRR SLP082
SPECI CYNL 071619Z AUTO 31013G22KT FEW016 BKN025 14/10 A2977 RMK AO1 PRESRR SLP081
METAR CYNL 071600Z AUTO 30009G15KT BKN017 14/11 A2977 RMK AO1 PRESRR SLP079
SPECI CYNL 071547Z AUTO 30009G19KT SCT017 BKN021 14/11 A2976 RMK AO1 PRESRR SLP077
SPECI CYNL 071535Z AUTO 30011G20KT SCT017 BKN060 14/11 A2975 RMK AO1 PRESRR SLP075
SPECI CYNL 071532Z AUTO 30010G20KT SCT019 BKN026 14/11 A2975 RMK AO1 PRESRR SLP075
SPECI CYNL 071528Z AUTO 30013G20KT FEW017 SCT023 BKN060 14/11 A2975 RMK AO1 PRESRR SLP075
SPECI CYNL 071526Z AUTO 29013G20KT FEW017 BKN022 14/11 A2975 RMK AO1 PRESRR SLP075
SPECI CYNL 071517Z AUTO 30013G20KT SCT015 BKN025 14/11 A2975 RMK AO1 PRESRR SLP074
SPECI CYNL 071507Z AUTO 30012G19KT BKN015 OVC020 14/11 A2974 RMK AO1 PRESRR SLP073
METAR CYNL 071500Z AUTO 30008G18KT BKN014 BKN020 13/12 A2974 RMK AO1 PRESRR SLP072
SPECI CYNL 071440Z AUTO 30007G19KT BKN013 BKN019 13/12 A2974 RMK AO1 SLP069
SPECI CYNL 071438Z AUTO 30008G19KT SCT012 BKN015 BKN019 13/12 A2973 RMK AO1 SLP069
SPECI CYNL 071437Z AUTO 30009G19KT BKN012 BKN019 13/12 A2973 RMK AO1 SLP068
SPECI CYNL 071435Z AUTO 30009G19KT SCT012 BKN015 BKN019 13/12 A2973 RMK AO1 SLP068
METAR CYNL 071400Z AUTO 29009G16KT BKN011 13/12 A2972 RMK AO1 SLP065
SPECI CYNL 071350Z AUTO 29010G16KT SCT010 BKN015 13/13 A2972 RMK AO1 SLP063
SPECI CYNL 071344Z AUTO 30009G16KT SCT009 BKN012 13/13 A2972 RMK AO1 SLP063
SPECI CYNL 071343Z AUTO 30009G17KT BKN009 13/13 A2972 RMK AO1 SLP063
SPECI CYNL 071325Z AUTO 29010G17KT BKN010 OVC013 13/13 A2971 RMK AO1 SLP061
SPECI CYNL 071319Z AUTO 30009G15KT BKN009 BKN013 13/13 A2971 RMK AO1 SLP061
METAR CYNL 071300Z AUTO 29008G17KT SCT009 BKN012 13/13 A2970 RMK AO1 SLP059
SPECI CYNL 071251Z AUTO 29010G19KT SCT009 BKN012 13/13 A2970 RMK AO1 PRESRR SLP058
METAR CYNL 071200Z AUTO 28007KT OVC009 13/13 A2969 RMK AO1 PRESRR SLP053
METAR CYNL 071100Z AUTO 28008KT OVC007 13/13 A2967 RMK AO1 SLP046
METAR CYNL 071000Z AUTO 28007KT OVC009 13/13 A2965 RMK AO1 SLP039
SPECI CYNL 070957Z AUTO 28009KT BKN009 OVC012 13/13 A2965 RMK AO1 SLP038
SPECI CYNL 070956Z AUTO 28009KT OVC010 13/12 A2965 RMK AO1 SLP038
SPECI CYNL 070951Z AUTO 28006KT BKN009 OVC011 13/13 A2965 RMK AO1 SLP038
METAR CYNL 070900Z AUTO 29009G19KT BKN011 OVC015 13/12 A2964 RMK AO1 SLP035
SPECI CYNL 070833Z AUTO 28009G16KT SCT009 OVC014 13/12 A2964 RMK AO1 SLP035
METAR CYNL 070800Z AUTO 27008G15KT BKN009 OVC011 13/12 A2963 RMK AO1 SLP033
SPECI CYNL 070734Z AUTO 28008KT BKN009 OVC012 13/12 A2962 RMK AO1 SLP031
SPECI CYNL 070718Z AUTO 28009KT BKN010 OVC012 13/12 A2962 RMK AO1 SLP030
SPECI CYNL 070717Z AUTO 27008KT BKN009 OVC012 13/12 A2962 RMK AO1 SLP030
SPECI CYNL 070715Z AUTO 27007KT OVC010 13/12 A2962 RMK AO1 SLP030
SPECI CYNL 070714Z AUTO 27008KT BKN009 OVC012 13/12 A2962 RMK AO1 SLP030
SPECI CYNL 070709Z AUTO 28009KT BKN010 OVC017 13/12 A2962 RMK AO1 SLP030
METAR CYNL 070700Z AUTO 28007KT BKN009 OVC013 13/13 A2962 RMK AO1 SLP029
SPECI CYNL 070649Z AUTO 28008KT BKN009 OVC015 13/12 A2962 RMK AO1 SLP026
SPECI CYNL 070648Z AUTO 28009KT SCT009 OVC015 13/13 A2962 RMK AO1 SLP026
SPECI CYNL 070646Z AUTO 29008KT SCT009 BKN014 13/12 A2962 RMK AO1 SLP026
SPECI CYNL 070636Z AUTO 29009KT BKN014 13/12 A2962 RMK AO1 SLP026
SPECI CYNL 070635Z AUTO 28009KT BKN015 13/12 A2962 RMK AO1 SLP026
METAR CYNL 070600Z AUTO 28008G15KT FEW082 13/12 A2961 RMK AO1 SLP023
SPECI CYNL 070509Z AUTO 27006KT SCT021 BKN030 13/13 A2961 RMK AO1 SLP022
METAR CYNL 070500Z AUTO 28006KT BKN027 13/13 A2961 RMK AO1 SLP022
SPECI CYNL 070434Z AUTO 27007KT BKN029 13/13 A2961 RMK AO1 SLP023
METAR CYNL 070400Z AUTO 27006KT CLR 12/12 A2960 RMK AO1 SLP021
METAR CYNL 070300Z AUTO 26006KT SCT078 13/13 A2960 RMK AO1 SLP019
METAR CYNL 070200Z AUTO 27007KT CLR 13/12 A2959 RMK AO1 SLP020
METAR CYNL 070100Z AUTO 25007KT CLR 13/13 A2957 RMK AO1 SLP015
SPECI CYNL 070018Z AUTO 26007KT FEW008 14/13 A2956 RMK AO1 SLP012
METAR CYNL 070000Z AUTO 26007KT CLR 14/13 A2956 RMK AO1 SLP011
METAR CYNL 062300Z AUTO 27007KT CLR 15/13 A2954 RMK AO1 SLP004
METAR CYNL 062200Z AUTO 27004KT FEW170 15/14 A2953 RMK AO1 SLP999
METAR CYNL 062100Z AUTO 28004KT FEW011 SCT045 14/14 A2953 RMK AO1 SLP999
SPECI CYNL 062050Z AUTO 29006KT SCT015 BKN042 BKN056 13/13 A2953 RMK AO1 SLP001
SPECI CYNL 062044Z AUTO 30005KT VV027 13/13 A2953 RMK AO1 SLP001
SPECI CYNL 062039Z AUTO 27004KT VV021 13/13 A2953 RMK AO1 SLP001
SPECI CYNL 062037Z AUTO 26004KT VV026 13/13 A2953 RMK AO1 SLP001
SPECI CYNL 062036Z AUTO 26004KT VV024 13/13 A2953 RMK AO1 SLP001
SPECI CYNL 062034Z AUTO 26003KT VV027 13/13 A2953 RMK AO1 SLP001
METAR CYNL 062000Z AUTO 28007KT FEW032 BKN042 BKN054 13/12 A2953 RMK AO1 SLP000
SPECI CYNL 061928Z AUTO 29006G17KT FEW007 14/12 A2952 RMK AO1 SLP996
METAR CYNL 061900Z AUTO 26008KT FEW054 15/10 A2952 RMK AO1 SLP993
METAR CYNL 061800Z AUTO 23007KT CLR 18/11 A2951 RMK AO1 SLP988
METAR CYNL 061700Z AUTO 23005KT FEW074 16/12 A2951 RMK AO1 SLP989
SPECI CYNL 061603Z AUTO 18003KT FEW008 15/12 A2952 RMK AO1 SLP992
METAR CYNL 061600Z AUTO 18003KT FEW190 15/12 A2952 RMK AO1 SLP993
SPECI CYNL 061527Z AUTO 19005KT SCT005 BKN064 13/12 A2952 RMK AO1 SLP996
SPECI CYNL 061514Z AUTO 18006KT OVC005 13/12 A2952 RMK AO1 SLP996
METAR CYNL 061500Z AUTO 20003KT OVC004 11/11 A2953 RMK AO1 SLP999
SPECI CYNL 061426Z AUTO 25005KT OVC003 11/11 A2953 RMK AO1 SLP002
METAR CYNL 061400Z AUTO 19006KT OVC002 11/11 A2952 RMK AO1 SLP998
SPECI CYNL 061340Z AUTO 19007KT OVC002 10/10 A2953 RMK AO1 SLP000
SPECI CYNL 061338Z AUTO 19007KT VV003 10/10 A2953 RMK AO1 SLP000
METAR CYNL 061300Z AUTO 18009KT VV002 10/10 A2953 RMK AO1 SLP003
SPECI CYNL 061204Z AUTO 14005KT OVC002 10/10 A2955 RMK AO1 SLP007
METAR CYNL 061200Z AUTO 15005KT OVC003 10/10 A2955 RMK AO1 SLP007
SPECI CYNL 061137Z AUTO 15004KT VV003 11/11 A2955 RMK AO1 SLP008
SPECI CYNL 061136Z AUTO 15004KT VV002 11/11 A2955 RMK AO1 SLP008
SPECI CYNL 061117Z AUTO 14005KT BKN004 11/11 A2955 RMK AO1 SLP007
SPECI CYNL 061116Z AUTO 14005KT SCT004 BKN005 11/11 A2955 RMK AO1 SLP007
SPECI CYNL 061103Z AUTO 12004KT 080V160 SCT004 11/11 A2955 RMK AO1 SLP008
SPECI CYNL 061101Z AUTO 13004KT 090V160 BKN004 11/11 A2955 RMK AO1 SLP008
METAR CYNL 061100Z AUTO 11003KT SCT004 11/11 A2955 RMK AO1 SLP008
SPECI CYNL 061050Z AUTO 16004KT FEW004 11/11 A2955 RMK AO1 SLP007
METAR CYNL 061000Z AUTO 18005KT FEW110 11/11 A2956 RMK AO1 SLP010
METAR CYNL 060900Z AUTO 21002KT FEW022 11/11 A2956 RMK AO1 PRESFR SLP009
SPECI CYNL 060840Z AUTO 15005KT 110V190 FEW009 SCT025 BKN047 12/12 A2956 RMK AO1 SLP007
SPECI CYNL 060838Z AUTO 15005KT 110V190 VV027 12/12 A2956 RMK AO1 SLP008
SPECI CYNL 060822Z AUTO 19005KT VV031 12/12 A2958 RMK AO1 SLP014
SPECI CYNL 060821Z AUTO 20004KT VV027 12/12 A2958 RMK AO1 SLP014
METAR CYNL 060800Z AUTO 18005KT FEW007 SCT039 BKN064 12/12 A2959 RMK AO1 SLP016
SPECI CYNL 060744Z AUTO 17008G15KT FEW007 SCT026 OVC060 12/12 A2959 RMK AO1 SLP019
SPECI CYNL 060742Z AUTO 17010G16KT VV022 12/12 A2959 RMK AO1 SLP019
SPECI CYNL 060741Z AUTO 17011G16KT VV025 12/12 A2959 RMK AO1 SLP019
SPECI CYNL 060730Z AUTO 18012KT FEW007 BKN058 12/11 A2959 RMK AO1 SLP018
SPECI CYNL 060707Z AUTO 18011G19KT SCT017 BKN037 BKN056 13/11 A2960 RMK AO1 SLP019
SPECI CYNL 060703Z AUTO 19012G19KT BKN018 BKN210 13/11 A2960 RMK AO1 SLP019
SPECI CYNL 060702Z AUTO 20014G19KT SCT018 BKN026 13/11 A2959 RMK AO1 SLP019
SPECI CYNL 060701Z AUTO 19013G19KT BKN018 13/11 A2959 RMK AO1 SLP018
METAR CYNL 060700Z AUTO 18013G19KT SCT019 BKN034 13/11 A2959 RMK AO1 SLP018
SPECI CYNL 060644Z AUTO 19016G22KT FEW010 SCT024 BKN037 13/11 A2959 RMK AO1 SLP020
SPECI CYNL 060642Z AUTO 20014G19KT 1 1/2SM VV023 12/12 A2959 RMK AO1 SLP020
SPECI CYNL 060641Z AUTO 20014G19KT 1SM VV023 12/12 A2959 RMK AO1 SLP020
SPECI CYNL 060637Z AUTO 21007G15KT 1/2SM VV024 12/12 A2959 RMK AO1 SLP020
SPECI CYNL 060634Z AUTO 21010G15KT 3/8SM VV029 12/12 A2959 RMK AO1 SLP020
SPECI CYNL 060633Z AUTO 21010KT 3/4SM VV031 12/12 A2960 RMK AO1 SLP020
SPECI CYNL 060630Z AUTO 20010G15KT 1 3/4SM SCT010 BKN038 OVC062 12/12 A2959 RMK AO1 SLP020
SPECI CYNL 060626Z AUTO 20009G15KT 2SM FEW009 SCT013 BKN062 12/11 A2960 RMK AO1 SLP021
SPECI CYNL 060625Z AUTO 20008G15KT 2 1/2SM SCT011 BKN062 12/11 A2960 RMK AO1 SLP021
METAR CYNL 060600Z AUTO 17011KT 9SM FEW015 SCT078 12/10 A2960 RMK AO1 SLP021
METAR CYNL 060500Z AUTO 16012KT 9SM FEW130 12/09 A2962 RMK AO1 PRESFR SLP029
METAR CYNL 060400Z AUTO 17010G16KT 9SM BKN042 BKN140 13/09 A2964 RMK AO1 SLP038
METAR CYNL 060300Z AUTO 17010KT 9SM SCT100 13/09 A2967 RMK AO1 SLP046
METAR CYNL 060200Z AUTO 17011KT 9SM SCT100 BKN140 13/09 A2967 RMK AO1 SLP051
METAR CYNL 060100Z AUTO 15009G21KT 9SM SCT096 13/09 A2968 RMK AO1 SLP055
METAR CYNL 060000Z AUTO 14011G16KT 9SM CLR 14/09 A2970 RMK AO1 PRESFR SLP061
METAR CYNL 052300Z AUTO 16008KT 9SM CLR 14/10 A2972 RMK AO1 PRESFR SLP069
SPECI CYNL 052219Z AUTO 17009KT 9SM FEW009 SCT021 BKN062 14/10 A2973 RMK AO1 SLP074
SPECI CYNL 052216Z AUTO 17009KT 7SM VV024 14/10 A2973 RMK AO1 SLP074
SPECI CYNL 052215Z AUTO 17008KT 7SM VV028 14/10 A2972 RMK AO1 SLP073
METAR CYNL 052200Z AUTO 16008KT 6SM FEW008 15/09 A2974 RMK AO1 SLP076
METAR CYNL 052100Z AUTO 16011KT 9SM CLR 15/08 A2975 RMK AO1 PRESFR SLP082
METAR CYNL 052000Z AUTO 17010G16KT 9SM FEW210 15/08 A2978 RMK AO1 SLP091
METAR CYNL 051900Z AUTO 17011G17KT 9SM FEW170 15/08 A2979 RMK AO1 SLP097
METAR CYNL 051800Z AUTO 18012KT 9SM FEW210 14/08 A2980 RMK AO1 PRESFR SLP099
METAR CYNL 051700Z AUTO 18011KT 9SM CLR 13/08 A2982 RMK AO1 SLP107
METAR CYNL 051600Z AUTO 17009KT 9SM CLR 12/08 A2984 RMK AO1 PRESFR SLP113
METAR CYNL 051500Z AUTO 17011KT 9SM CLR 10/08 A2986 RMK AO1 SLP121
METAR CYNL 051400Z AUTO 17008KT 9SM CLR 09/08 A2987 RMK AO1 SLP125
METAR CYNL 051300Z AUTO 14004KT 9SM CLR 07/07 A2988 RMK AO1 SLP125
METAR CYNL 051200Z AUTO 19004KT 9SM CLR 06/06 A2989 RMK AO1 SLP129
SPECI CYNL 051144Z AUTO 20005KT 3SM FEW001 06/06 A2990 RMK AO1 SLP129
SPECI CYNL 051143Z AUTO 19005KT 1 3/4SM SCT001 06/06 A2990 RMK AO1 SLP129
SPECI CYNL 051141Z AUTO 18004KT 1SM SCT001 06/06 A2989 RMK AO1 SLP129
SPECI CYNL 051136Z AUTO 19004KT 3/8SM SCT001 05/05 A2990 RMK AO1 SLP130
SPECI CYNL 051135Z AUTO 19004KT 3/8SM BKN001 05/05 A2990 RMK AO1 SLP130
SPECI CYNL 051133Z AUTO 19004KT 1/4SM SCT001 05/05 A2990 RMK AO1 SLP130
SPECI CYNL 051132Z AUTO 19004KT 1/4SM BKN001 05/05 A2990 RMK AO1 SLP130
METAR CYNL 051100Z AUTO 21004KT 0SM VV001 05/05 A2990 RMK AO1 SLP130
SPECI CYNL 051026Z AUTO 00000KT 0SM VV001 04/04 A2989 RMK AO1 SLP131
SPECI CYNL 051022Z AUTO 14002KT 0SM FEW001 04/04 A2989 RMK AO1 SLP130
SPECI CYNL 051014Z AUTO 16002KT 1/8SM CLR 04/04 A2990 RMK AO1 SLP131
SPECI CYNL 051008Z AUTO 00000KT 5/8SM CLR 04/04 A2990 RMK AO1 SLP132
SPECI CYNL 051006Z AUTO 14002KT 3/4SM CLR 04/04 A2990 RMK AO1 SLP132
METAR CYNL 051000Z AUTO 15003KT 1/4SM CLR 04/04 A2990 RMK AO1 SLP133
SPECI CYNL 050954Z AUTO 16004KT 5/8SM CLR 05/05 A2991 RMK AO1 SLP134
SPECI CYNL 050953Z AUTO 16004KT 1 1/2SM CLR 05/05 A2991 RMK AO1 SLP135
SPECI CYNL 050943Z AUTO 16004KT 9SM CLR 04/04 A2991 RMK AO1 SLP137
SPECI CYNL 050942Z AUTO 17004KT 2 1/2SM CLR 03/03 A2991 RMK AO1 SLP137
SPECI CYNL 050941Z AUTO 17004KT 3/4SM CLR 03/03 A2991 RMK AO1 SLP138
SPECI CYNL 050939Z AUTO 16004KT 1/4SM CLR 02/02 A2991 RMK AO1 SLP139
SPECI CYNL 050916Z AUTO 00000KT 1/8SM CLR 02/02 A2991 RMK AO1 SLP139
SPECI CYNL 050907Z AUTO 12002KT 3/8SM CLR 02/02 A2991 RMK AO1 SLP138
SPECI CYNL 050906Z AUTO 11002KT 3/4SM CLR 02/02 A2991 RMK AO1 SLP137
SPECI CYNL 050905Z AUTO 10002KT 1SM CLR 02/02 A2991 RMK AO1 SLP137
METAR CYNL 050900Z AUTO 00000KT 1/4SM CLR 02/02 A2991 RMK AO1 SLP138
SPECI CYNL 050835Z AUTO 00000KT 1/8SM CLR 03/03 A2991 RMK AO1 SLP140
SPECI CYNL 050834Z AUTO 00000KT 1/4SM CLR 03/03 A2991 RMK AO1 SLP140
SPECI CYNL 050817Z AUTO 09003KT 1/8SM CLR 03/02 A2992 RMK AO1 SLP141
SPECI CYNL 050814Z AUTO 09002KT 5/8SM CLR 03/03 A2992 RMK AO1 SLP142
SPECI CYNL 050813Z AUTO 09002KT 1 1/2SM CLR 03/03 A2992 RMK AO1 SLP142
SPECI CYNL 050808Z AUTO 00000KT 3SM CLR 03/03 A2992 RMK AO1 SLP143
SPECI CYNL 050804Z AUTO 00000KT 2 1/2SM CLR 03/03 A2992 RMK AO1 SLP143
SPECI CYNL 050803Z AUTO 00000KT 3SM CLR 03/03 A2992 RMK AO1 SLP143
SPECI CYNL 050802Z AUTO 00000KT 1 3/4SM CLR 03/03 A2992 RMK AO1 SLP143
SPECI CYNL 050801Z AUTO 00000KT 1SM CLR 03/03 A2992 RMK AO1 SLP143
METAR CYNL 050800Z AUTO 00000KT 1/2SM CLR 03/03 A2992 RMK AO1 SLP143
SPECI CYNL 050750Z AUTO 00000KT 1/2SM CLR 03/03 A2993 RMK AO1 SLP145
SPECI CYNL 050749Z AUTO 00000KT 1SM CLR 03/03 A2993 RMK AO1 SLP145
SPECI CYNL 050745Z AUTO 00000KT 6SM CLR 03/03 A2993 RMK AO1 SLP146
SPECI CYNL 050744Z AUTO 00000KT 1 3/4SM CLR 03/03 A2993 RMK AO1 SLP146
SPECI CYNL 050743Z AUTO 00000KT 3/4SM CLR 03/03 A2993 RMK AO1 SLP146
SPECI CYNL 050740Z AUTO 00000KT 1/2SM CLR 03/03 A2993 RMK AO1 SLP146
SPECI CYNL 050739Z AUTO 00000KT 1SM CLR 03/03 A2993 RMK AO1 SLP146
SPECI CYNL 050736Z AUTO 00000KT 2 1/2SM CLR 03/03 A2993 RMK AO1 SLP146
SPECI CYNL 050713Z AUTO 21003KT 5SM CLR 04/04 A2993 RMK AO1 SLP146
SPECI CYNL 050712Z AUTO 21003KT 1 1/2SM CLR 04/04 A2993 RMK AO1 SLP146
SPECI CYNL 050711Z AUTO 21003KT 1SM CLR 04/04 A2993 RMK AO1 SLP147
SPECI CYNL 050709Z AUTO 23002KT 1/2SM CLR 04/04 A2993 RMK AO1 SLP147
SPECI CYNL 050708Z AUTO 23003KT 3/4SM CLR 04/04 A2993 RMK AO1 SLP147
SPECI CYNL 050707Z AUTO 23003KT 1SM CLR 04/04 A2993 RMK AO1 SLP147
SPECI CYNL 050702Z AUTO 23003KT 1/4SM CLR 04/04 A2993 RMK AO1 SLP147
SPECI CYNL 050701Z AUTO 23003KT 1/8SM CLR 04/04 A2993 RMK AO1 SLP147
METAR CYNL 050700Z AUTO 23003KT 1/4SM CLR 04/04 A2994 RMK AO1 SLP147
SPECI CYNL 050658Z AUTO 22003KT 5/8SM CLR 04/04 A2994 RMK AO1 SLP147
SPECI CYNL 050657Z AUTO 23003KT 1 1/2SM CLR 04/04 A2994 RMK AO1 SLP148
SPECI CYNL 050614Z AUTO 22002KT 4SM CLR 05/05 A2994 RMK AO1 SLP147
SPECI CYNL 050613Z AUTO 22002KT 1 3/4SM CLR 05/05 A2994 RMK AO1 SLP147
SPECI CYNL 050608Z AUTO 23003KT 1/4SM CLR 05/05 A2994 RMK AO1 SLP147
METAR CYNL 050600Z AUTO 25004KT 0SM CLR 05/05 A2994 RMK AO1 SLP147
SPECI CYNL 050556Z AUTO 25004KT 1/8SM CLR 06/06 A2994 RMK AO1 SLP148
SPECI CYNL 050553Z AUTO 25004KT 5/8SM CLR 06/06 A2994 RMK AO1 SLP148
SPECI CYNL 050552Z AUTO 25004KT 1 1/4SM CLR 06/06 A2994 RMK AO1 SLP148
SPECI CYNL 050551Z AUTO 25004KT 2 1/2SM CLR 06/06 A2994 RMK AO1 SLP148
SPECI CYNL 050544Z AUTO 25004KT 5SM CLR 05/05 A2994 RMK AO1 SLP149
SPECI CYNL 050541Z AUTO 25004KT 2SM CLR 05/05 A2994 RMK AO1 SLP149
SPECI CYNL 050540Z AUTO 25004KT 1 1/4SM CLR 05/05 A2994 RMK AO1 SLP149
SPECI CYNL 050538Z AUTO 25004KT 3/8SM CLR 05/05 A2994 RMK AO1 SLP149
SPECI CYNL 050529Z AUTO 25003KT 1/8SM CLR 05/05 A2994 RMK AO1 SLP149
SPECI CYNL 050528Z AUTO 25003KT 1/4SM CLR 05/05 A2994 RMK AO1 SLP149
SPECI CYNL 050527Z AUTO 25003KT 1SM CLR 06/05 A2994 RMK AO1 SLP149
SPECI CYNL 050524Z AUTO 25003KT 5SM CLR 05/05 A2994 RMK AO1 SLP149
SPECI CYNL 050523Z AUTO 25004KT 2 1/2SM CLR 05/05 A2994 RMK AO1 SLP149
SPECI CYNL 050522Z AUTO 25004KT 1 1/4SM CLR 05/05 A2994 RMK AO1 SLP149
SPECI CYNL 050520Z AUTO 25004KT 3/8SM CLR 05/05 A2994 RMK AO1 SLP149
SPECI CYNL 050505Z AUTO 25004KT 1/8SM CLR 05/05 A2994 RMK AO1 SLP149
SPECI CYNL 050503Z AUTO 25003KT 1/2SM CLR 05/05 A2994 RMK AO1 SLP149
SPECI CYNL 050502Z AUTO 25003KT 1 1/4SM CLR 05/05 A2994 RMK AO1 SLP149
METAR CYNL 050500Z AUTO 25004KT 6SM CLR 05/05 A2994 RMK AO1 SLP149
METAR CYNL 050400Z AUTO 22003KT 9SM CLR 06/06 A2994 RMK AO1 SLP150
METAR CYNL 050300Z AUTO 00000KT 9SM CLR 07/06 A2995 RMK AO1 SLP151
METAR CYNL 050200Z AUTO 00000KT 9SM CLR 10/07 A2995 RMK AO1 SLP147
METAR CYNL 050100Z AUTO 27003KT 9SM CLR 14/06 A2996 RMK AO1 SLP147
METAR CYNL 050000Z AUTO 31003KT 9SM CLR 15/07 A2996 RMK AO1 SLP149
METAR CYNL 042300Z AUTO 25004KT 9SM SCT029 15/07 A2997 RMK AO1 SLP153
SPECI CYNL 042253Z AUTO 26005KT 9SM SCT029 15/07 A2997 RMK AO1 SLP152
SPECI CYNL 042250Z AUTO 27004KT 9SM BKN029 15/07 A2997 RMK AO1 SLP152
METAR CYNL 042200Z AUTO 31005KT 9SM FEW026 14/07 A2998 RMK AO1 SLP154
SPECI CYNL 042117Z AUTO 00005KT 9SM SCT024 13/07 A2998 RMK AO1 SLP158
SPECI CYNL 042106Z AUTO VRB02KT 9SM BKN024 13/07 A2998 RMK AO1 SLP158
METAR CYNL 042100Z AUTO 00000KT 9SM SCT025 13/07 A2998 RMK AO1 SLP157
SPECI CYNL 042032Z AUTO 28003KT 9SM SCT022 13/06 A2999 RMK AO1 SLP160
SPECI CYNL 042031Z AUTO 29004KT 9SM SCT022 BKN026 13/07 A2999 RMK AO1 SLP160
METAR CYNL 042000Z AUTO 31004KT 9SM OVC019 12/07 A2999 RMK AO1 SLP162
METAR CYNL 041900Z AUTO 34007KT 300V010 9SM OVC017 12/07 A3000 RMK AO1 SLP163